Right Now

Temperature THW Index 72.16°

77.47° 3.62

Humidity

100.00% 0

Dew Point

77.47° 3.62

Pressure

1018.01mb 0.21

Wind

6.37mph 0.98 S

Rain

0"

This Week

Filter Columns:
Timestamp Temp Ground Temp Est. Temp THW Index Wet Bulb Humidity Dew Point Pressure Wind Speed Wind Gust Lightning Rainfall
360435 4/17/2024 8:56am 77.47° F --° F 77.47° F 72.16° F 72.99° F 100.00% 77.47° F 1018.01mb 6.37mph S 16.46mph 0 0.000"
360434 4/17/2024 8:51am 75.52° F --° F 75.52° F 65.94° F 71.04° F 100.00% 75.52° F 1017.89mb 7.06mph S 13.03mph 0 0.000"
360433 4/17/2024 8:46am 73.98° F --° F 73.98° F 73.98° F 69.48° F 100.00% 73.98° F 1017.81mb 9.22mph S 15.08mph 0 0.000"
360432 4/17/2024 8:41am 73.98° F --° F 73.98° F 73.98° F 69.48° F 100.00% 73.98° F 1017.70mb 11.03mph S 17.84mph 0 0.000"
360431 4/17/2024 8:36am 73.92° F --° F 73.92° F 73.92° F 69.42° F 100.00% 73.92° F 1017.62mb 7.42mph S 15.08mph 0 0.000"
360430 4/17/2024 8:30am 73.81° F --° F 73.81° F 73.81° F 69.31° F 100.00% 73.81° F 1017.55mb 8.94mph S 19.22mph 0 0.000"
360429 4/17/2024 8:25am 73.76° F --° F 73.76° F 73.76° F 69.26° F 100.00% 73.76° F 1017.72mb 9.26mph S 17.84mph 0 0.000"
360428 4/17/2024 8:20am 73.69° F --° F 73.69° F 73.69° F 69.19° F 100.00% 73.69° F 1017.68mb 6.97mph S 13.03mph 0 0.000"
360427 4/17/2024 8:15am 73.63° F --° F 73.63° F 73.63° F 69.13° F 100.00% 73.63° F 1017.93mb 5.38mph S 9.61mph 0 0.000"
360426 4/17/2024 8:10am 73.54° F --° F 73.54° F 73.54° F 69.04° F 100.00% 73.54° F 1018.01mb 6.11mph S 12.34mph 0 0.000"
360425 4/17/2024 8:05am 73.49° F --° F 73.49° F 73.49° F 68.99° F 100.00% 73.49° F 1017.90mb 6.11mph S 15.77mph 0 0.000"
360424 4/17/2024 8:00am 73.42° F --° F 73.42° F 73.42° F 68.91° F 100.00% 73.42° F 1017.99mb 4.99mph S 9.61mph 0 0.000"
360423 4/17/2024 7:55am 73.44° F --° F 73.44° F 73.44° F 68.93° F 100.00% 73.44° F 1017.81mb 5.65mph S 10.30mph 0 0.000"
360422 4/17/2024 7:50am 73.49° F --° F 73.49° F 73.49° F 68.99° F 100.00% 73.49° F 1017.74mb 6.53mph S 11.65mph 0 0.000"
360421 4/17/2024 7:45am 73.49° F --° F 73.49° F 73.49° F 68.99° F 100.00% 73.49° F 1017.77mb 6.53mph S 13.72mph 0 0.000"
360420 4/17/2024 7:40am 73.49° F --° F 73.49° F 73.49° F 68.99° F 100.00% 73.49° F 1017.77mb 5.33mph S 12.34mph 0 0.000"
360419 4/17/2024 7:34am 73.54° F --° F 73.54° F 73.54° F 69.04° F 100.00% 73.54° F 1017.76mb 5.65mph S 13.03mph 0 0.000"
360418 4/17/2024 7:29am 73.67° F --° F 73.67° F 73.67° F 69.17° F 100.00% 73.67° F 1017.59mb 7.17mph S 14.41mph 0 0.000"
360417 4/17/2024 7:24am 73.89° F --° F 73.89° F 73.89° F 69.39° F 100.00% 73.89° F 1017.50mb 4.62mph S 8.23mph 0 0.000"
360416 4/17/2024 7:19am 74.26° F --° F 74.26° F 65.14° F 69.77° F 100.00% 74.26° F 1017.33mb 4.87mph S 11.65mph 0 0.000"
360415 4/17/2024 7:14am 74.84° F --° F 74.84° F 67.26° F 70.35° F 100.00% 74.84° F 1017.26mb 4.21mph S 8.23mph 0 0.000"
360414 4/17/2024 7:09am 75.60° F --° F 75.60° F 70.17° F 71.11° F 100.00% 75.60° F 1017.11mb 3.31mph S 5.49mph 0 0.000"
360413 4/17/2024 7:04am 76.39° F --° F 76.39° F 71.18° F 71.91° F 100.00% 76.39° F 1017.14mb 4.37mph S 6.18mph 0 0.000"
360412 4/17/2024 6:59am 75.88° F --° F 75.88° F 69.95° F 71.40° F 100.00% 75.88° F 1017.07mb 4.21mph S 7.54mph 0 0.000"
360411 4/17/2024 6:54am 74.59° F --° F 74.59° F 67.78° F 70.09° F 100.00% 74.59° F 1017.21mb 3.15mph S 7.54mph 0 0.000"
360410 4/17/2024 6:49am 72.30° F --° F 72.30° F 72.30° F 67.79° F 100.00% 72.30° F 1017.22mb 1.66mph S 4.11mph 0 0.000"
360409 4/17/2024 6:44am 71.73° F --° F 71.73° F 71.73° F 67.21° F 100.00% 71.73° F 1017.19mb 2.87mph S 7.54mph 0 0.000"
360408 4/17/2024 6:39am 71.74° F --° F 71.74° F 71.74° F 67.23° F 100.00% 71.74° F 1017.09mb 3.06mph S 5.49mph 0 0.000"
360407 4/17/2024 6:34am 71.78° F --° F 71.78° F 71.78° F 67.26° F 100.00% 71.78° F 1016.94mb 4.02mph S 6.18mph 0 0.000"
360406 4/17/2024 6:28am 71.82° F --° F 71.82° F 71.82° F 67.30° F 100.00% 71.82° F 1016.81mb 5.08mph S 8.92mph 0 0.000"
360405 4/17/2024 6:23am 71.87° F --° F 71.87° F 71.87° F 67.36° F 100.00% 71.87° F 1016.87mb 4.07mph S 8.23mph 0 0.000"
360404 4/17/2024 6:18am 71.89° F --° F 71.89° F 71.89° F 67.37° F 100.00% 71.89° F 1016.84mb 4.97mph S 8.92mph 0 0.000"
360403 4/17/2024 6:13am 71.87° F --° F 71.87° F 71.87° F 67.36° F 100.00% 71.87° F 1016.88mb 4.05mph S 6.85mph 0 0.000"
360402 4/17/2024 6:08am 71.87° F --° F 71.87° F 71.87° F 67.36° F 100.00% 71.87° F 1016.80mb 3.68mph S 6.85mph 0 0.000"
360401 4/17/2024 6:03am 71.87° F --° F 71.87° F 71.87° F 67.36° F 100.00% 71.87° F 1016.77mb 4.64mph S 9.61mph 0 0.000"
360400 4/17/2024 5:58am 71.87° F --° F 71.87° F 71.87° F 67.36° F 100.00% 71.87° F 1016.69mb 4.00mph S 7.54mph 0 0.000"
360399 4/17/2024 5:53am 71.91° F --° F 71.91° F 71.91° F 67.39° F 100.00% 71.91° F 1016.48mb 4.57mph S 7.54mph 0 0.000"
360398 4/17/2024 5:48am 71.94° F --° F 71.94° F 71.94° F 67.43° F 100.00% 71.94° F 1016.59mb 4.25mph S 8.92mph 0 0.000"
360397 4/17/2024 5:43am 71.96° F --° F 71.96° F 71.96° F 67.45° F 100.00% 71.96° F 1016.37mb 3.75mph S 8.92mph 0 0.000"
360396 4/17/2024 5:38am 72.03° F --° F 72.03° F 72.03° F 67.52° F 100.00% 72.03° F 1016.24mb 4.92mph S 7.54mph 0 0.000"
360395 4/17/2024 5:33am 72.09° F --° F 72.09° F 72.09° F 67.57° F 100.00% 72.09° F 1016.26mb 5.03mph S 8.92mph 0 0.000"
360394 4/17/2024 5:28am 72.16° F --° F 72.16° F 72.16° F 67.65° F 100.00% 72.16° F 1016.22mb 5.38mph S 11.65mph 0 0.000"
360393 4/17/2024 5:23am 72.18° F --° F 72.18° F 72.18° F 67.66° F 100.00% 72.18° F 1016.18mb 4.05mph S 7.54mph 0 0.000"
360392 4/17/2024 5:17am 72.19° F --° F 72.19° F 72.19° F 67.68° F 100.00% 72.19° F 1016.02mb 4.69mph S 9.61mph 0 0.000"
360391 4/17/2024 5:12am 72.19° F --° F 72.19° F 72.19° F 67.68° F 100.00% 72.19° F 1016.19mb 1.61mph S 5.49mph 0 0.000"
360390 4/17/2024 5:07am 72.16° F --° F 72.16° F 72.16° F 67.65° F 100.00% 72.16° F 1016.22mb 1.40mph NNW 4.11mph 0 0.000"
360389 4/17/2024 5:02am 72.16° F --° F 72.16° F 72.16° F 67.65° F 100.00% 72.16° F 1016.10mb 2.97mph S 6.18mph 0 0.000"
360388 4/17/2024 4:57am 72.14° F --° F 72.14° F 72.14° F 67.63° F 100.00% 72.14° F 1016.03mb 4.18mph S 8.92mph 0 0.000"
360387 4/17/2024 4:52am 72.16° F --° F 72.16° F 72.16° F 67.65° F 100.00% 72.16° F 1016.02mb 4.05mph S 8.92mph 0 0.000"
360386 4/17/2024 4:47am 72.12° F --° F 72.12° F 72.12° F 67.61° F 100.00% 72.12° F 1016.02mb 3.43mph S 7.54mph 0 0.000"
360385 4/17/2024 4:42am 72.16° F --° F 72.16° F 72.16° F 67.65° F 100.00% 72.16° F 1016.02mb 4.37mph S 8.92mph 0 0.000"
360384 4/17/2024 4:37am 72.19° F --° F 72.19° F 72.19° F 67.68° F 100.00% 72.19° F 1015.91mb 4.78mph S 8.23mph 0 0.000"
360383 4/17/2024 4:32am 72.18° F --° F 72.18° F 72.18° F 67.66° F 100.00% 72.18° F 1015.85mb 4.69mph S 8.92mph 0 0.000"
360382 4/17/2024 4:27am 72.19° F --° F 72.19° F 72.19° F 67.68° F 100.00% 72.19° F 1015.87mb 4.18mph S 8.23mph 0 0.000"
360381 4/17/2024 4:22am 72.21° F --° F 72.21° F 72.21° F 67.70° F 100.00% 72.21° F 1015.72mb 5.38mph S 8.92mph 0 0.000"
360380 4/17/2024 4:16am 72.21° F --° F 72.21° F 72.21° F 67.70° F 100.00% 72.21° F 1015.64mb 5.20mph S 8.92mph 0 0.000"
360379 4/17/2024 4:11am 72.19° F --° F 72.19° F 72.19° F 67.68° F 100.00% 72.19° F 1015.75mb 4.00mph S 7.54mph 0 0.000"
360378 4/17/2024 4:06am 72.19° F --° F 72.19° F 72.19° F 67.68° F 100.00% 72.19° F 1015.69mb 4.14mph S 6.85mph 0 0.000"
360377 4/17/2024 4:01am 72.18° F --° F 72.18° F 72.18° F 67.66° F 100.00% 72.18° F 1015.62mb 4.64mph S 10.96mph 0 0.000"
360376 4/17/2024 3:56am 72.21° F --° F 72.21° F 72.21° F 67.70° F 100.00% 72.21° F 1015.53mb 3.91mph S 7.54mph 0 0.000"
360375 4/17/2024 3:51am 72.23° F --° F 72.23° F 72.23° F 67.72° F 100.00% 72.23° F 1015.46mb 5.68mph S 12.34mph 0 0.000"
360374 4/17/2024 3:46am 72.36° F --° F 72.36° F 72.36° F 67.84° F 100.00% 72.36° F 1015.46mb 5.82mph S 10.96mph 0 0.000"
360373 4/17/2024 3:41am 72.46° F --° F 72.46° F 72.46° F 67.95° F 100.00% 72.46° F 1015.40mb 4.83mph S 9.61mph 0 0.000"
360372 4/17/2024 3:36am 72.55° F --° F 72.55° F 72.55° F 68.04° F 100.00% 72.55° F 1015.42mb 3.75mph S 7.54mph 0 0.000"
360371 4/17/2024 3:31am 72.68° F --° F 72.68° F 72.68° F 68.17° F 100.00% 72.68° F 1015.41mb 3.31mph S 6.18mph 0 0.000"
360370 4/17/2024 3:26am 72.88° F --° F 72.88° F 72.88° F 68.37° F 100.00% 72.88° F 1015.36mb 4.32mph S 6.85mph 0 0.000"
360369 4/17/2024 3:21am 73.15° F --° F 73.15° F 73.15° F 68.64° F 100.00% 73.15° F 1015.47mb 5.38mph S 13.03mph 0 0.000"
360368 4/17/2024 3:15am 73.60° F --° F 73.60° F 73.60° F 69.10° F 100.00% 73.60° F 1015.44mb 6.25mph S 10.30mph 0 0.000"
360367 4/17/2024 3:10am 74.23° F --° F 74.23° F 64.92° F 69.73° F 100.00% 74.23° F 1015.46mb 5.01mph S 8.23mph 0 0.000"
360366 4/17/2024 3:05am 75.00° F --° F 75.00° F 67.03° F 70.51° F 100.00% 75.00° F 1015.45mb 4.80mph S 8.92mph 0 0.000"
360365 4/17/2024 3:00am 75.92° F --° F 75.92° F 69.28° F 71.43° F 100.00% 75.92° F 1015.40mb 4.94mph S 7.54mph 0 0.000"
360364 4/17/2024 2:55am 75.49° F --° F 75.49° F 68.46° F 71.00° F 100.00% 75.49° F 1015.45mb 4.64mph S 9.61mph 0 0.000"
360363 4/17/2024 2:50am 74.07° F --° F 74.07° F 65.30° F 69.57° F 100.00% 74.07° F 1015.57mb 4.30mph S 8.23mph 0 0.000"
360362 4/17/2024 2:45am 72.07° F --° F 72.07° F 72.07° F 67.55° F 100.00% 72.07° F 1015.64mb 4.05mph S 8.23mph 0 0.000"
360361 4/17/2024 2:40am 72.07° F --° F 72.07° F 72.07° F 67.55° F 100.00% 72.07° F 1015.64mb 4.87mph S 11.65mph 0 0.000"
360360 4/17/2024 2:35am 72.10° F --° F 72.10° F 72.10° F 67.59° F 100.00% 72.10° F 1015.68mb 5.24mph S 7.54mph 0 0.000"
360359 4/17/2024 2:30am 72.09° F --° F 72.09° F 72.09° F 67.57° F 100.00% 72.09° F 1015.94mb 4.39mph S 6.85mph 0 0.000"
360358 4/17/2024 2:25am 72.09° F --° F 72.09° F 72.09° F 67.57° F 100.00% 72.09° F 1016.07mb 4.11mph S 7.54mph 0 0.000"
360357 4/17/2024 2:20am 72.09° F --° F 72.09° F 72.09° F 67.57° F 100.00% 72.09° F 1015.94mb 3.22mph S 8.92mph 0 0.000"
360356 4/17/2024 2:14am 72.10° F --° F 72.10° F 72.10° F 67.59° F 100.00% 72.10° F 1015.96mb 4.07mph S 8.92mph 0 0.000"
360355 4/17/2024 2:09am 72.16° F --° F 72.16° F 72.16° F 67.65° F 100.00% 72.16° F 1015.96mb 4.23mph S 8.23mph 0 0.000"
360354 4/17/2024 2:04am 72.18° F --° F 72.18° F 72.18° F 67.66° F 100.00% 72.18° F 1015.99mb 4.51mph S 9.61mph 0 0.000"
360353 4/17/2024 1:59am 72.21° F --° F 72.21° F 72.21° F 67.70° F 100.00% 72.21° F 1015.96mb 4.64mph S 8.23mph 0 0.000"
360352 4/17/2024 1:54am 72.27° F --° F 72.27° F 72.27° F 67.75° F 100.00% 72.27° F 1015.98mb 5.86mph S 11.65mph 0 0.000"
360351 4/17/2024 1:49am 72.32° F --° F 72.32° F 72.32° F 67.81° F 100.00% 72.32° F 1015.87mb 5.15mph S 9.61mph 0 0.000"
360350 4/17/2024 1:44am 72.43° F --° F 72.43° F 72.43° F 67.92° F 100.00% 72.43° F 1015.80mb 6.11mph S 12.34mph 0 0.000"
360349 4/17/2024 1:39am 72.41° F --° F 72.41° F 72.41° F 67.90° F 100.00% 72.41° F 1015.82mb 6.67mph S 13.03mph 0 0.000"
360348 4/17/2024 1:34am 72.46° F --° F 72.46° F 72.46° F 67.95° F 100.00% 72.46° F 1015.81mb 7.29mph S 13.03mph 0 0.000"
360347 4/17/2024 1:29am 72.50° F --° F 72.50° F 72.50° F 67.99° F 100.00% 72.50° F 1015.76mb 6.83mph S 12.34mph 0 0.000"
360346 4/17/2024 1:24am 72.57° F --° F 72.57° F 72.57° F 68.06° F 100.00% 72.57° F 1015.83mb 7.38mph S 15.08mph 0 0.000"
360345 4/17/2024 1:19am 72.70° F --° F 72.70° F 72.70° F 68.19° F 100.00% 72.70° F 1015.73mb 7.22mph S 15.08mph 0 0.000"
360344 4/17/2024 1:13am 72.81° F --° F 72.81° F 72.81° F 68.30° F 100.00% 72.81° F 1015.70mb 6.18mph S 10.96mph 0 0.000"
360343 4/17/2024 1:08am 72.91° F --° F 72.91° F 72.91° F 68.41° F 100.00% 72.91° F 1015.86mb 5.72mph S 12.34mph 0 0.000"
360342 4/17/2024 1:03am 73.00° F --° F 73.00° F 73.00° F 68.50° F 100.00% 73.00° F 1015.86mb 6.64mph S 15.77mph 0 0.000"
360341 4/17/2024 12:58am 73.11° F --° F 73.11° F 73.11° F 68.61° F 100.00% 73.11° F 1015.77mb 4.67mph S 8.23mph 0 0.000"
360340 4/17/2024 12:53am 73.26° F --° F 73.26° F 73.26° F 68.75° F 100.00% 73.26° F 1015.90mb 6.87mph S 15.08mph 0 0.000"
360339 4/17/2024 12:48am 73.45° F --° F 73.45° F 73.45° F 68.95° F 100.00% 73.45° F 1015.95mb 5.61mph S 10.30mph 0 0.000"
360338 4/17/2024 12:43am 73.71° F --° F 73.71° F 73.71° F 69.20° F 100.00% 73.71° F 1015.98mb 6.76mph S 13.03mph 0 0.000"
360337 4/17/2024 12:38am 74.08° F --° F 74.08° F 64.12° F 69.58° F 100.00% 74.08° F 1016.05mb 5.42mph S 13.03mph 0 0.000"
360336 4/17/2024 12:33am 74.57° F --° F 74.57° F 64.35° F 70.07° F 100.00% 74.57° F 1016.16mb 6.30mph S 10.96mph 0 0.000"
360335 4/17/2024 12:28am 75.20° F --° F 75.20° F 66.57° F 70.71° F 100.00% 75.20° F 1016.26mb 5.70mph S 10.96mph 0 0.000"
360334 4/17/2024 12:22am 76.08° F --° F 76.08° F 67.44° F 71.60° F 100.00% 76.08° F 1016.43mb 7.06mph S 13.72mph 0 0.000"
360333 4/17/2024 12:17am 76.80° F --° F 76.80° F 70.61° F 72.32° F 100.00% 76.80° F 1016.42mb 5.98mph S 11.65mph 0 0.000"
360332 4/17/2024 12:12am 76.12° F --° F 76.12° F 68.12° F 71.63° F 100.00% 76.12° F 1016.52mb 6.53mph S 10.96mph 0 0.000"
360331 4/17/2024 12:07am 74.53° F --° F 74.53° F 61.84° F 70.04° F 100.00% 74.53° F 1016.45mb 8.55mph S 17.84mph 0 0.000"
360330 4/17/2024 12:02am 73.29° F --° F 73.29° F 73.29° F 68.79° F 100.00% 73.29° F 1016.47mb 6.16mph S 11.65mph 0 0.000"
360329 4/16/2024 11:57pm 73.45° F --° F 73.45° F 73.45° F 68.95° F 100.00% 73.45° F 1016.63mb 7.77mph S 13.03mph 0 0.000"
360328 4/16/2024 11:52pm 73.63° F --° F 73.63° F 73.63° F 69.13° F 100.00% 73.63° F 1016.56mb 7.52mph S 14.41mph 0 0.000"
360327 4/16/2024 11:47pm 73.76° F --° F 73.76° F 73.76° F 69.26° F 100.00% 73.76° F 1016.58mb 5.70mph S 10.30mph 0 0.000"
360326 4/16/2024 11:42pm 73.89° F --° F 73.89° F 73.89° F 69.39° F 100.00% 73.89° F 1016.51mb 6.39mph S 11.65mph 0 0.000"
360325 4/16/2024 11:37pm 73.99° F --° F 73.99° F 73.99° F 69.49° F 100.00% 73.99° F 1016.57mb 7.88mph S 11.65mph 0 0.000"
360324 4/16/2024 11:32pm 74.14° F --° F 74.14° F 62.51° F 69.64° F 100.00% 74.14° F 1016.58mb 7.06mph S 13.03mph 0 0.000"
360323 4/16/2024 11:26pm 74.25° F --° F 74.25° F 64.97° F 69.75° F 100.00% 74.25° F 1016.68mb 5.01mph S 10.30mph 0 0.000"
360322 4/16/2024 11:21pm 74.43° F --° F 74.43° F 63.62° F 69.93° F 100.00% 74.43° F 1016.73mb 6.67mph S 10.96mph 0 0.000"
360321 4/16/2024 11:16pm 74.68° F --° F 74.68° F 65.19° F 70.18° F 100.00% 74.68° F 1016.71mb 5.77mph S 8.92mph 0 0.000"
360320 4/16/2024 11:11pm 75.06° F --° F 75.06° F 65.35° F 70.56° F 100.00% 75.06° F 1016.75mb 6.51mph S 11.65mph 0 0.000"
360319 4/16/2024 11:06pm 75.52° F --° F 75.52° F 66.85° F 71.04° F 100.00% 75.52° F 1016.80mb 6.21mph S 12.34mph 0 0.000"
360318 4/16/2024 11:01pm 76.28° F --° F 76.28° F 67.36° F 71.80° F 100.00% 76.28° F 1016.76mb 7.65mph S 14.41mph 0 0.000"
360317 4/16/2024 10:56pm 77.25° F --° F 77.25° F 73.04° F 72.78° F 100.00% 77.25° F 1016.76mb 4.94mph S 10.30mph 0 0.000"
360316 4/16/2024 10:51pm 77.58° F --° F 77.58° F 72.79° F 73.10° F 100.00% 77.58° F 1016.78mb 6.09mph S 10.96mph 0 0.000"
360315 4/16/2024 10:46pm 76.98° F --° F 76.98° F 68.97° F 72.50° F 100.00% 76.98° F 1016.74mb 8.00mph S 15.77mph 0 0.000"
360314 4/16/2024 10:41pm 75.52° F --° F 75.52° F 67.77° F 71.04° F 100.00% 75.52° F 1016.68mb 5.36mph S 8.92mph 0 0.000"
360313 4/16/2024 10:36pm 74.61° F --° F 74.61° F 64.18° F 70.11° F 100.00% 74.61° F 1016.52mb 6.55mph S 13.03mph 0 0.000"
360312 4/16/2024 10:30pm 74.82° F --° F 74.82° F 64.43° F 70.33° F 100.00% 74.82° F 1016.56mb 6.80mph S 10.96mph 0 0.000"
360311 4/16/2024 10:25pm 74.98° F --° F 74.98° F 65.42° F 70.49° F 100.00% 74.98° F 1016.58mb 6.25mph S 15.77mph 0 0.000"
360310 4/16/2024 10:20pm 75.20° F --° F 75.20° F 66.20° F 70.71° F 100.00% 75.20° F 1016.59mb 6.05mph S 10.30mph 0 0.000"
360309 4/16/2024 10:15pm 75.51° F --° F 75.51° F 66.98° F 71.02° F 100.00% 75.51° F 1016.61mb 6.07mph S 9.61mph 0 0.000"
360308 4/16/2024 10:10pm 75.88° F --° F 75.88° F 67.12° F 71.40° F 100.00% 75.88° F 1016.60mb 6.85mph S 19.22mph 0 0.000"
360307 4/16/2024 10:05pm 76.50° F --° F 76.50° F 70.21° F 72.01° F 100.00% 76.50° F 1016.63mb 5.56mph S 10.30mph 0 0.000"
360306 4/16/2024 10:00pm 77.20° F --° F 77.20° F 71.24° F 72.72° F 100.00% 77.20° F 1016.72mb 6.48mph S 15.08mph 0 0.000"
360305 4/16/2024 9:55pm 78.06° F --° F 78.06° F 74.41° F 73.59° F 100.00% 78.06° F 1016.46mb 5.95mph S 10.96mph 0 0.000"
360304 4/16/2024 9:50pm 78.13° F --° F 78.13° F 72.56° F 73.66° F 100.00% 78.13° F 1016.53mb 7.88mph S 15.08mph 0 0.000"
360303 4/16/2024 9:45pm 77.52° F --° F 77.52° F 72.39° F 73.05° F 100.00% 77.52° F 1016.38mb 6.30mph S 11.65mph 0 0.000"
360302 4/16/2024 9:39pm 75.88° F --° F 75.88° F 67.35° F 71.40° F 100.00% 75.88° F 1016.40mb 6.64mph S 11.65mph 0 0.000"
360301 4/16/2024 9:34pm 75.16° F --° F 75.16° F 64.84° F 70.67° F 100.00% 75.16° F 1016.47mb 7.22mph S 13.72mph 0 0.000"
360300 4/16/2024 9:29pm 75.34° F --° F 75.34° F 65.40° F 70.85° F 100.00% 75.34° F 1016.52mb 7.13mph S 12.34mph 0 0.000"
360299 4/16/2024 9:24pm 75.45° F --° F 75.45° F 67.83° F 70.96° F 100.00% 75.45° F 1016.57mb 5.13mph S 8.92mph 0 0.000"
360298 4/16/2024 9:19pm 75.65° F --° F 75.65° F 66.19° F 71.16° F 100.00% 75.65° F 1016.55mb 7.15mph S 12.34mph 0 0.000"
360297 4/16/2024 9:14pm 75.88° F --° F 75.88° F 65.28° F 71.40° F 100.00% 75.88° F 1016.59mb 8.57mph S 15.08mph 0 0.000"
360296 4/16/2024 9:09pm 76.30° F --° F 76.30° F 67.70° F 71.81° F 100.00% 76.30° F 1016.45mb 7.38mph S 12.34mph 0 0.000"
360295 4/16/2024 9:04pm 76.75° F --° F 76.75° F 67.03° F 72.27° F 100.00% 76.75° F 1016.53mb 9.19mph S 23.33mph 0 0.000"
360294 4/16/2024 8:59pm 77.45° F --° F 77.45° F 70.13° F 72.97° F 100.00% 77.45° F 1016.29mb 8.21mph S 12.34mph 0 0.000"
360293 4/16/2024 8:54pm 78.44° F --° F 78.44° F 72.52° F 73.97° F 100.00% 78.44° F 1016.14mb 8.83mph S 13.72mph 0 0.000"
360292 4/16/2024 8:49pm 79.12° F --° F 79.12° F 73.89° F 74.66° F 100.00% 79.12° F 1016.18mb 9.61mph S 15.77mph 0 0.000"
360291 4/16/2024 8:43pm 78.64° F --° F 78.64° F 73.29° F 74.17° F 100.00% 78.64° F 1016.09mb 8.71mph S 16.46mph 0 0.000"
360290 4/16/2024 8:38pm 77.29° F --° F 77.29° F 68.30° F 72.81° F 100.00% 77.29° F 1016.16mb 9.47mph S 19.22mph 0 0.000"
360289 4/16/2024 8:33pm 76.28° F --° F 76.28° F 67.18° F 71.80° F 100.00% 76.28° F 1016.06mb 7.82mph S 13.03mph 0 0.000"
360288 4/16/2024 8:28pm 76.53° F --° F 76.53° F 69.03° F 72.05° F 100.00% 76.53° F 1016.06mb 6.74mph S 12.34mph 0 0.000"
360287 4/16/2024 8:23pm 76.80° F --° F 76.80° F 69.91° F 72.32° F 100.00% 76.80° F 1016.04mb 6.64mph S 13.03mph 0 0.000"
360286 4/16/2024 8:18pm 77.13° F --° F 77.13° F 71.45° F 72.65° F 100.00% 77.13° F 1015.99mb 6.09mph S 12.34mph 0 0.000"
360285 4/16/2024 8:13pm 77.47° F --° F 77.47° F 71.55° F 72.99° F 100.00% 77.47° F 1016.04mb 6.94mph S 12.34mph 0 0.000"
360284 4/16/2024 8:08pm 77.97° F --° F 77.97° F 73.12° F 73.50° F 100.00% 77.97° F 1016.07mb 6.90mph S 15.08mph 0 0.000"
360283 4/16/2024 8:03pm 78.66° F --° F 78.66° F 74.06° F 74.19° F 100.00% 78.66° F 1015.92mb 8.05mph S 15.08mph 0 0.000"
360282 4/16/2024 7:58pm 79.72° F --° F 79.72° F 77.47° F 75.26° F 100.00% 79.72° F 1015.92mb 8.16mph S 15.77mph 0 0.000"
360281 4/16/2024 7:53pm 80.20° F --° F 80.20° F 78.80° F 75.75° F 100.00% 80.20° F 1015.74mb 8.48mph S 16.46mph 0 0.000"
360280 4/16/2024 7:47pm 79.70° F --° F 79.70° F 75.31° F 75.24° F 100.00% 79.70° F 1015.81mb 10.11mph S 16.46mph 0 0.000"
360279 4/16/2024 7:42pm 78.48° F --° F 78.48° F 69.97° F 74.01° F 100.00% 78.48° F 1015.68mb 11.33mph S 20.57mph 0 0.000"
360278 4/16/2024 7:37pm 77.41° F --° F 77.41° F 69.91° F 72.94° F 100.00% 77.41° F 1015.69mb 8.30mph S 15.08mph 0 0.000"
360277 4/16/2024 7:32pm 77.77° F --° F 77.77° F 70.56° F 73.30° F 100.00% 77.77° F 1015.70mb 8.71mph S 15.77mph 0 0.000"
360276 4/16/2024 7:27pm 78.26° F --° F 78.26° F 69.67° F 73.79° F 100.00% 78.26° F 1015.64mb 10.96mph S 19.22mph 0 0.000"
360275 4/16/2024 7:22pm 78.91° F --° F 78.91° F 72.54° F 74.44° F 100.00% 78.91° F 1015.70mb 10.23mph S 16.46mph 0 0.000"
360274 4/16/2024 7:17pm 79.74° F --° F 79.74° F 73.90° F 75.28° F 100.00% 79.74° F 1015.71mb 11.56mph S 18.53mph 0 0.000"
360273 4/16/2024 7:12pm 80.92° F --° F 80.92° F 79.28° F 76.47° F 100.00% 80.92° F 1015.59mb 10.44mph S 21.26mph 0 0.000"
360272 4/16/2024 7:07pm 81.72° F --° F 81.72° F 82.10° F 77.27° F 100.00% 81.72° F 1015.51mb 10.60mph S 21.26mph 0 0.000"
360271 4/16/2024 7:01pm 81.34° F --° F 81.34° F 83.43° F 76.89° F 100.00% 81.34° F 1015.56mb 8.02mph S 13.72mph 0 0.000"
360270 4/16/2024 6:56pm 80.28° F --° F 80.28° F 79.01° F 75.82° F 100.00% 80.28° F 1015.54mb 8.55mph S 16.46mph 0 0.000"
360269 4/16/2024 6:51pm 79.20° F --° F 79.20° F 74.09° F 74.73° F 100.00% 79.20° F 1015.56mb 9.68mph S 17.15mph 0 0.000"
360268 4/16/2024 6:46pm 79.56° F --° F 79.56° F 75.35° F 75.10° F 100.00% 79.56° F 1015.71mb 9.63mph S 19.88mph 0 0.000"
360267 4/16/2024 6:41pm 80.01° F --° F 80.01° F 78.28° F 75.55° F 100.00% 80.01° F 1015.68mb 8.34mph S 13.03mph 0 0.000"
360266 4/16/2024 6:36pm 80.56° F --° F 80.56° F 77.98° F 76.11° F 100.00% 80.56° F 1015.74mb 10.44mph S 23.33mph 0 0.000"
360265 4/16/2024 6:31pm 81.54° F --° F 81.54° F 81.59° F 77.09° F 100.00% 81.54° F 1015.71mb 10.44mph S 19.22mph 0 0.000"
360264 4/16/2024 6:26pm 82.81° F --° F 82.81° F 89.41° F 78.38° F 100.00% 82.81° F 1015.54mb 7.77mph S 17.84mph 0 0.000"
360263 4/16/2024 6:21pm 83.35° F --° F 83.35° F 90.11° F 78.92° F 100.00% 83.35° F 1015.39mb 9.17mph S 20.57mph 0 0.000"
360262 4/16/2024 6:16pm 83.23° F --° F 83.23° F 88.36° F 78.79° F 100.00% 83.23° F 1015.41mb 10.34mph S 18.53mph 0 0.000"
360261 4/16/2024 6:10pm 82.94° F --° F 82.94° F 88.18° F 78.50° F 100.00% 82.94° F 1015.46mb 9.40mph S 21.26mph 0 0.000"
360260 4/16/2024 6:05pm 81.99° F --° F 81.99° F 83.86° F 77.54° F 100.00% 81.99° F 1015.53mb 9.93mph S 24.00mph 0 0.000"
360259 4/16/2024 6:00pm 80.87° F --° F 80.87° F 76.76° F 76.42° F 100.00% 80.87° F 1015.51mb 12.62mph S 19.88mph 0 0.000"
360258 4/16/2024 5:55pm 81.28° F --° F 81.28° F 80.49° F 76.84° F 100.00% 81.28° F 1015.50mb 10.55mph S 21.26mph 0 0.000"
360257 4/16/2024 5:50pm 81.55° F --° F 81.55° F 80.10° F 77.11° F 100.00% 81.55° F 1015.36mb 11.86mph S 23.33mph 0 0.000"
360256 4/16/2024 5:45pm 82.06° F --° F 82.06° F 83.27° F 77.62° F 100.00% 82.06° F 1015.47mb 10.73mph S 19.88mph 0 0.000"
360255 4/16/2024 5:40pm 82.47° F --° F 82.47° F 84.16° F 78.03° F 100.00% 82.47° F 1015.48mb 11.40mph S 19.22mph 0 0.000"
360254 4/16/2024 5:35pm 83.32° F --° F 83.32° F 88.55° F 78.88° F 100.00% 83.32° F 1015.52mb 10.51mph S 18.53mph 0 0.000"
360253 4/16/2024 5:30pm 84.29° F --° F 84.29° F 92.30° F 79.54° F 97.52% 83.66° F 1015.46mb 9.65mph S 19.22mph 0 0.000"
360252 4/16/2024 5:25pm 85.35° F --° F 85.35° F 93.28° F 79.99° F 92.58% 83.42° F 1015.30mb 10.25mph S 16.46mph 0 0.000"
360251 4/16/2024 5:19pm 85.12° F --° F 85.12° F 87.79° F 79.30° F 89.27% 82.29° F 1015.32mb 12.92mph S 22.64mph 0 0.000"
360250 4/16/2024 5:14pm 84.96° F --° F 84.96° F 92.39° F 79.61° F 92.73% 83.08° F 1015.36mb 9.75mph S 19.22mph 0 0.000"
360249 4/16/2024 5:09pm 83.59° F --° F 83.59° F 89.41° F 78.28° F 92.95% 81.78° F 1015.37mb 7.88mph S 15.08mph 0 0.000"
360248 4/16/2024 5:04pm 83.23° F --° F 83.23° F 85.34° F 77.96° F 93.29% 81.51° F 1015.40mb 10.60mph S 19.88mph 0 0.000"
360247 4/16/2024 4:59pm 83.64° F --° F 83.64° F 82.10° F 77.92° F 89.88% 81.00° F 1015.36mb 13.68mph S 24.00mph 0 0.000"
360246 4/16/2024 4:54pm 84.24° F --° F 84.24° F 84.04° F 77.51° F 82.61% 79.53° F 1015.32mb 10.87mph S 17.84mph 0 0.000"
360245 4/16/2024 4:49pm 85.01° F --° F 85.01° F 84.13° F 77.61° F 78.28% 78.97° F 1015.28mb 11.15mph S 23.33mph 0 0.000"
360244 4/16/2024 4:44pm 85.91° F --° F 85.91° F 84.03° F 77.97° F 75.26% 78.88° F 1015.28mb 12.30mph S 20.57mph 0 0.000"
360243 4/16/2024 4:39pm 85.80° F --° F 85.80° F 87.49° F 78.45° F 78.82% 79.90° F 1015.43mb 10.37mph S 19.22mph 0 0.000"
360242 4/16/2024 4:33pm 84.83° F --° F 84.83° F 86.88° F 78.68° F 86.78% 81.31° F 1015.37mb 11.68mph S 24.69mph 0 0.000"
360241 4/16/2024 4:28pm 83.44° F --° F 83.44° F 84.11° F 77.79° F 90.19% 80.89° F 1015.47mb 11.29mph S 20.57mph 0 0.000"
360240 4/16/2024 4:23pm 83.68° F --° F 83.68° F 84.93° F 77.74° F 88.07% 80.54° F 1015.51mb 10.48mph S 21.26mph 0 0.000"
360239 4/16/2024 4:18pm 83.71° F --° F 83.71° F 84.09° F 77.29° F 84.57% 79.59° F 1015.52mb 10.07mph S 18.53mph 0 0.000"
360238 4/16/2024 4:13pm 84.07° F --° F 84.07° F 78.86° F 76.95° F 79.97% 78.58° F 1015.62mb 14.27mph S 21.95mph 0 0.000"
360237 4/16/2024 4:08pm 84.69° F --° F 84.69° F 80.85° F 77.03° F 76.56% 78.13° F 1015.68mb 12.73mph S 30.18mph 0 0.000"
360236 4/16/2024 4:03pm 85.68° F --° F 85.68° F 82.30° F 77.50° F 73.79% 78.19° F 1015.81mb 12.71mph S 22.64mph 0 0.000"
360235 4/16/2024 3:58pm 86.81° F --° F 86.81° F 90.45° F 78.66° F 74.21% 79.40° F 1015.79mb 8.16mph S 19.22mph 0 0.000"
360234 4/16/2024 3:53pm 87.37° F --° F 87.37° F 89.45° F 78.79° F 71.98% 79.20° F 1015.95mb 9.45mph S 29.49mph 0 0.000"
360233 4/16/2024 3:47pm 87.42° F --° F 87.42° F 87.59° F 78.54° F 70.22% 78.65° F 1015.95mb 10.44mph S 20.57mph 0 0.000"
360232 4/16/2024 3:42pm 86.74° F --° F 86.74° F 91.72° F 79.36° F 78.92% 80.84° F 1016.05mb 9.13mph S 24.00mph 0 0.000"
360231 4/16/2024 3:37pm 85.39° F --° F 85.39° F 84.14° F 77.72° F 76.73% 78.85° F 1016.06mb 11.49mph S 21.26mph 0 0.000"
360230 4/16/2024 3:32pm 84.27° F --° F 84.27° F 81.57° F 77.56° F 82.69% 79.58° F 1016.05mb 13.29mph S 28.80mph 0 0.000"
360229 4/16/2024 3:27pm 84.29° F --° F 84.29° F 82.52° F 78.08° F 86.19% 80.61° F 1016.14mb 13.84mph S 24.00mph 0 0.000"
360228 4/16/2024 3:22pm 84.29° F --° F 84.29° F 87.03° F 78.19° F 87.14% 80.88° F 1016.11mb 10.02mph S 20.57mph 0 0.000"
360227 4/16/2024 3:17pm 84.34° F --° F 84.34° F 87.34° F 78.05° F 85.74% 80.54° F 1016.33mb 9.31mph S 17.15mph 0 0.000"
360226 4/16/2024 3:12pm 84.88° F --° F 84.88° F 85.38° F 77.96° F 81.47% 79.81° F 1016.35mb 10.94mph S 17.84mph 0 0.000"
360225 4/16/2024 3:07pm 85.80° F --° F 85.80° F 80.25° F 77.62° F 73.74% 78.29° F 1016.32mb 14.90mph S 22.64mph 0 0.000"
360224 4/16/2024 3:02pm 87.01° F --° F 87.01° F 89.15° F 79.05° F 75.51% 80.02° F 1016.29mb 10.55mph S 19.22mph 0 0.000"
360223 4/16/2024 2:56pm 86.85° F --° F 86.85° F 89.51° F 78.92° F 75.67% 79.92° F 1016.40mb 9.86mph S 19.88mph 0 0.000"
360222 4/16/2024 2:51pm 86.77° F --° F 86.77° F 91.19° F 79.02° F 76.59% 80.13° F 1016.31mb 8.53mph S 17.84mph 0 0.000"
360221 4/16/2024 2:46pm 85.77° F --° F 85.77° F 89.89° F 79.43° F 85.74% 81.93° F 1016.37mb 11.36mph S 24.00mph 0 0.000"
360220 4/16/2024 2:41pm 84.92° F --° F 84.92° F 90.48° F 79.38° F 91.31% 82.65° F 1016.51mb 10.71mph S 19.22mph 0 0.000"
360219 4/16/2024 2:36pm 84.60° F --° F 84.60° F 87.15° F 78.26° F 85.47% 80.71° F 1016.64mb 10.16mph S 19.22mph 0 0.000"
360218 4/16/2024 2:31pm 84.99° F --° F 84.99° F 88.91° F 78.60° F 85.16% 81.00° F 1016.63mb 9.56mph S 17.84mph 0 0.000"
360217 4/16/2024 2:26pm 85.68° F --° F 85.68° F 91.91° F 79.56° F 87.23% 82.27° F 1016.64mb 9.93mph S 19.88mph 0 0.000"
360216 4/16/2024 2:21pm 86.32° F --° F 86.32° F 89.17° F 78.85° F 78.14% 80.19° F 1016.67mb 9.93mph S 19.22mph 0 0.000"
360215 4/16/2024 2:16pm 86.99° F --° F 86.99° F 96.66° F 80.40° F 84.09% 82.64° F 1016.72mb 8.11mph S 15.08mph 0 0.000"
360214 4/16/2024 2:11pm 87.03° F --° F 87.03° F 94.72° F 80.56° F 84.95% 82.93° F 1016.66mb 10.55mph S 24.69mph 0 0.000"
360213 4/16/2024 2:05pm 86.14° F --° F 86.14° F 92.56° F 80.04° F 87.41% 82.77° F 1016.68mb 10.96mph S 19.22mph 0 0.000"
360212 4/16/2024 2:00pm 85.24° F --° F 85.24° F 93.38° F 80.14° F 94.56% 83.84° F 1016.75mb 10.78mph S 21.95mph 0 0.000"
360211 4/16/2024 1:55pm 84.63° F --° F 84.63° F 91.26° F 79.50° F 94.33% 83.17° F 1016.76mb 10.39mph S 23.33mph 0 0.000"
360210 4/16/2024 1:50pm 84.61° F --° F 84.61° F 91.01° F 79.11° F 91.56% 82.41° F 1016.85mb 9.26mph S 18.53mph 0 0.000"
360209 4/16/2024 1:45pm 84.65° F --° F 84.65° F 91.34° F 79.33° F 92.88% 82.81° F 1016.91mb 9.70mph S 18.53mph 0 0.000"
360208 4/16/2024 1:40pm 85.08° F --° F 85.08° F 86.18° F 78.49° F 83.84% 80.71° F 1016.91mb 11.79mph S 22.64mph 0 0.000"
360207 4/16/2024 1:35pm 85.44° F --° F 85.44° F 87.17° F 79.02° F 84.97% 81.39° F 1016.77mb 12.48mph S 24.69mph 0 0.000"
360206 4/16/2024 1:30pm 86.29° F --° F 86.29° F 90.40° F 79.87° F 85.23% 82.29° F 1016.74mb 12.30mph S 22.64mph 0 0.000"
360205 4/16/2024 1:25pm 87.44° F --° F 87.44° F 92.49° F 80.57° F 82.32% 82.55° F 1016.63mb 12.44mph S 24.00mph 0 0.000"
360204 4/16/2024 1:19pm 87.37° F --° F 87.37° F 101.96° F 82.22° F 94.33% 85.89° F 1016.78mb 11.01mph S 21.95mph 0 0.000"
360203 4/16/2024 1:14pm 86.25° F --° F 86.25° F 97.34° F 81.77° F 99.61% 86.15° F 1016.72mb 14.09mph S 21.95mph 0 0.000"
360202 4/16/2024 1:09pm 85.21° F --° F 85.21° F 92.94° F 80.79° F 100.00% 85.21° F 1016.86mb 14.00mph S 26.76mph 0 0.000"
360201 4/16/2024 1:04pm 84.31° F --° F 84.31° F 89.64° F 79.88° F 100.00% 84.31° F 1016.74mb 13.38mph S 23.33mph 0 0.000"
360200 4/16/2024 12:59pm 84.25° F --° F 84.25° F 90.89° F 79.83° F 100.00% 84.25° F 1016.74mb 11.98mph S 23.33mph 0 0.000"
360199 4/16/2024 12:54pm 84.02° F --° F 84.02° F 92.46° F 79.59° F 100.00% 84.02° F 1016.87mb 9.59mph S 18.53mph 0 0.000"
360198 4/16/2024 12:49pm 84.24° F --° F 84.24° F 89.32° F 79.81° F 100.00% 84.24° F 1016.83mb 13.40mph S 27.45mph 0 0.000"
360197 4/16/2024 12:44pm 84.43° F --° F 84.43° F 91.15° F 80.01° F 100.00% 84.43° F 1016.74mb 12.46mph S 21.95mph 0 0.000"
360196 4/16/2024 12:39pm 84.81° F --° F 84.81° F 92.12° F 80.39° F 100.00% 84.81° F 1016.90mb 13.10mph S 20.57mph 0 0.000"
360195 4/16/2024 12:34pm 84.99° F --° F 84.99° F 92.43° F 80.57° F 100.00% 84.99° F 1017.14mb 13.56mph S 21.95mph 0 0.000"
360194 4/16/2024 12:28pm 84.45° F --° F 84.45° F 89.07° F 80.03° F 100.00% 84.45° F 1017.15mb 14.48mph S 32.92mph 0 0.000"
360193 4/16/2024 12:23pm 82.81° F --° F 82.81° F 82.67° F 78.38° F 100.00% 82.81° F 1016.88mb 14.05mph S 22.64mph 0 0.000"
360192 4/16/2024 12:18pm 81.28° F --° F 81.28° F 75.79° F 76.84° F 100.00% 81.28° F 1017.11mb 14.94mph S 24.69mph 0 0.000"
360191 4/16/2024 12:13pm 81.34° F --° F 81.34° F 76.92° F 76.89° F 100.00% 81.34° F 1017.24mb 14.09mph S 24.00mph 0 0.000"
360190 4/16/2024 12:08pm 80.98° F --° F 80.98° F 78.67° F 76.53° F 100.00% 80.98° F 1017.36mb 11.22mph S 21.26mph 0 0.000"
360189 4/16/2024 12:03pm 80.98° F --° F 80.98° F 78.10° F 76.53° F 100.00% 80.98° F 1017.32mb 11.75mph S 22.64mph 0 0.000"
360188 4/16/2024 11:58am 81.16° F --° F 81.16° F 80.77° F 76.71° F 100.00% 81.16° F 1017.16mb 9.88mph S 17.84mph 0 0.000"
360187 4/16/2024 11:53am 81.54° F --° F 81.54° F 82.61° F 77.09° F 100.00% 81.54° F 1017.10mb 9.49mph S 18.53mph 0 0.000"
360186 4/16/2024 11:48am 81.46° F --° F 81.46° F 80.60° F 77.02° F 100.00% 81.46° F 1017.16mb 11.08mph S 19.22mph 0 0.000"
360185 4/16/2024 11:42am 81.81° F --° F 81.81° F 83.85° F 77.36° F 100.00% 81.81° F 1017.08mb 9.29mph S 17.15mph 0 0.000"
360184 4/16/2024 11:37am 81.70° F --° F 81.70° F 79.27° F 77.25° F 100.00% 81.70° F 1016.98mb 13.17mph S 25.38mph 0 0.000"
360183 4/16/2024 11:32am 80.91° F --° F 80.91° F 77.65° F 76.46° F 100.00% 80.91° F 1017.03mb 11.93mph S 29.49mph 0 0.000"
360182 4/16/2024 11:27am 81.30° F --° F 81.30° F 81.63° F 76.85° F 100.00% 81.30° F 1016.96mb 9.56mph S 22.64mph 0 0.000"
360181 4/16/2024 11:22am 82.06° F --° F 82.06° F 79.96° F 77.62° F 100.00% 82.06° F 1017.04mb 13.82mph S 27.45mph 0 0.000"
360180 4/16/2024 11:17am 82.56° F --° F 82.56° F 86.36° F 78.12° F 100.00% 82.56° F 1017.10mb 9.68mph S 21.26mph 0 0.000"
360179 4/16/2024 11:12am 83.32° F --° F 83.32° F 87.88° F 78.88° F 100.00% 83.32° F 1017.20mb 11.13mph S 21.95mph 0 0.000"
360178 4/16/2024 11:07am 82.80° F --° F 82.80° F 89.96° F 78.36° F 100.00% 82.80° F 1017.23mb 7.22mph S 13.72mph 0 0.000"
360177 4/16/2024 11:02am 80.74° F --° F 80.74° F 77.75° F 76.29° F 100.00% 80.74° F 1017.22mb 11.26mph S 26.07mph 0 0.000"
360176 4/16/2024 10:56am 79.07° F --° F 79.07° F 71.76° F 74.61° F 100.00% 79.07° F 1017.47mb 11.45mph S 24.00mph 0 0.000"
360175 4/16/2024 10:51am 78.93° F --° F 78.93° F 72.75° F 74.46° F 100.00% 78.93° F 1017.50mb 10.09mph S 17.84mph 0 0.000"
360174 4/16/2024 10:46am 79.00° F --° F 79.00° F 72.09° F 74.53° F 100.00% 79.00° F 1017.58mb 10.92mph S 17.15mph 0 0.000"
360173 4/16/2024 10:41am 78.67° F --° F 78.67° F 72.44° F 74.21° F 100.00% 78.67° F 1017.40mb 9.59mph S 20.57mph 0 0.000"
360172 4/16/2024 10:36am 78.33° F --° F 78.33° F 69.99° F 73.86° F 100.00% 78.33° F 1017.31mb 10.87mph S 24.69mph 0 0.000"
360171 4/16/2024 10:31am 77.95° F --° F 77.95° F 64.59° F 73.48° F 100.00% 77.95° F 1017.28mb 14.80mph S 24.00mph 0 0.000"
360170 4/16/2024 10:26am 78.21° F --° F 78.21° F 64.51° F 73.74° F 100.00% 78.21° F 1017.21mb 15.63mph S 27.45mph 0 0.000"
360169 4/16/2024 10:21am 78.44° F --° F 78.44° F 66.88° F 73.97° F 100.00% 78.44° F 1017.04mb 14.09mph S 24.69mph 0 0.000"
360168 4/16/2024 10:16am 79.12° F --° F 79.12° F 69.68° F 74.66° F 100.00% 79.12° F 1017.00mb 13.54mph S 21.95mph 0 0.000"
360167 4/16/2024 10:11am 79.81° F --° F 79.81° F 75.51° F 75.35° F 100.00% 79.81° F 1016.85mb 10.28mph S 20.57mph 0 0.000"
360166 4/16/2024 10:05am 80.35° F --° F 80.35° F 75.33° F 75.89° F 100.00% 80.35° F 1016.64mb 12.21mph S 20.57mph 0 0.000"
360165 4/16/2024 10:00am 80.31° F --° F 80.31° F 77.48° F 75.86° F 100.00% 80.31° F 1016.65mb 10.07mph S 21.95mph 0 0.000"
360164 4/16/2024 9:55am 78.76° F --° F 78.76° F 70.00° F 74.30° F 100.00% 78.76° F 1016.65mb 12.14mph S 25.38mph 0 0.000"
360163 4/16/2024 9:50am 77.52° F --° F 77.52° F 64.04° F 73.05° F 100.00% 77.52° F 1016.45mb 14.09mph S 26.76mph 0 0.000"
360162 4/16/2024 9:45am 77.13° F --° F 77.13° F 63.74° F 72.65° F 100.00% 77.13° F 1016.41mb 13.29mph S 28.80mph 0 0.000"
360161 4/16/2024 9:40am 76.35° F --° F 76.35° F 60.08° F 71.87° F 100.00% 76.35° F 1016.31mb 14.62mph S 26.76mph 0 0.000"
360160 4/16/2024 9:35am 75.92° F --° F 75.92° F 58.26° F 71.43° F 100.00% 75.92° F 1016.38mb 15.22mph S 26.07mph 0 0.000"
360159 4/16/2024 9:30am 75.54° F --° F 75.54° F 59.62° F 71.05° F 100.00% 75.54° F 1016.53mb 13.01mph S 19.88mph 0 0.000"
360158 4/16/2024 9:25am 75.02° F --° F 75.02° F 59.68° F 70.53° F 100.00% 75.02° F 1016.50mb 11.70mph S 23.33mph 0 0.000"
360157 4/16/2024 9:19am 74.89° F --° F 74.89° F 60.44° F 70.40° F 100.00% 74.89° F 1016.52mb 10.69mph S 19.22mph 0 0.000"
360156 4/16/2024 9:14am 75.00° F --° F 75.00° F 59.97° F 70.51° F 100.00% 75.00° F 1016.54mb 11.38mph S 20.57mph 0 0.000"
360155 4/16/2024 9:09am 75.13° F --° F 75.13° F 62.30° F 70.64° F 100.00% 75.13° F 1016.55mb 9.52mph S 18.53mph 0 0.000"
360154 4/16/2024 9:04am 75.20° F --° F 75.20° F 60.31° F 70.71° F 100.00% 75.20° F 1016.50mb 11.54mph S 19.88mph 0 0.000"
360153 4/16/2024 8:59am 75.36° F --° F 75.36° F 64.22° F 70.87° F 100.00% 75.36° F 1016.33mb 8.28mph S 19.22mph 0 0.000"
360152 4/16/2024 8:54am 75.56° F --° F 75.56° F 62.67° F 71.07° F 100.00% 75.56° F 1016.44mb 10.21mph S 16.46mph 0 0.000"
360151 4/16/2024 8:49am 76.39° F --° F 76.39° F 66.62° F 71.91° F 100.00% 76.39° F 1016.29mb 8.62mph S 16.46mph 0 0.000"
360150 4/16/2024 8:44am 77.29° F --° F 77.29° F 69.86° F 72.81° F 100.00% 77.29° F 1016.20mb 8.02mph S 15.08mph 0 0.000"
360149 4/16/2024 8:39am 76.73° F --° F 76.73° F 67.58° F 72.25° F 100.00% 76.73° F 1016.25mb 8.62mph S 19.22mph 0 0.000"
360148 4/16/2024 8:34am 75.15° F --° F 75.15° F 62.80° F 70.65° F 100.00% 75.15° F 1016.18mb 9.10mph S 15.08mph 0 0.000"
360147 4/16/2024 8:28am 72.99° F --° F 72.99° F 72.99° F 68.48° F 100.00% 72.99° F 1016.30mb 9.42mph S 15.08mph 0 0.000"
360146 4/16/2024 8:23am 72.73° F --° F 72.73° F 72.73° F 68.23° F 100.00% 72.73° F 1016.31mb 9.13mph S 19.22mph 0 0.000"
360145 4/16/2024 8:18am 72.55° F --° F 72.55° F 72.55° F 68.04° F 100.00% 72.55° F 1016.24mb 10.18mph S 17.84mph 0 0.000"
360144 4/16/2024 8:13am 72.48° F --° F 72.48° F 72.48° F 67.97° F 100.00% 72.48° F 1016.13mb 6.83mph S 15.08mph 0 0.000"
360143 4/16/2024 8:08am 72.43° F --° F 72.43° F 72.43° F 67.92° F 100.00% 72.43° F 1015.75mb 6.97mph S 13.72mph 0 0.000"
360142 4/16/2024 8:03am 72.32° F --° F 72.32° F 72.32° F 67.81° F 100.00% 72.32° F 1015.60mb 9.63mph S 17.15mph 0 0.000"
360141 4/16/2024 7:58am 72.32° F --° F 72.32° F 72.32° F 67.81° F 100.00% 72.32° F 1015.52mb 11.13mph S 24.69mph 0 0.000"
360140 4/16/2024 7:53am 72.41° F --° F 72.41° F 72.41° F 67.90° F 100.00% 72.41° F 1015.41mb 8.34mph S 15.08mph 0 0.000"
360139 4/16/2024 7:48am 72.61° F --° F 72.61° F 72.61° F 68.10° F 100.00% 72.61° F 1015.45mb 9.54mph S 21.95mph 0 0.000"
360138 4/16/2024 7:42am 72.91° F --° F 72.91° F 72.91° F 68.41° F 100.00% 72.91° F 1015.32mb 8.07mph S 13.72mph 0 0.000"
360137 4/16/2024 7:37am 73.45° F --° F 73.45° F 73.45° F 68.95° F 100.00% 73.45° F 1015.37mb 10.02mph S 15.08mph 0 0.000"
360136 4/16/2024 7:32am 74.34° F --° F 74.34° F 62.64° F 69.84° F 100.00% 74.34° F 1015.18mb 7.38mph S 13.03mph 0 0.000"
360135 4/16/2024 7:27am 74.28° F --° F 74.28° F 59.99° F 69.78° F 100.00% 74.28° F 1015.18mb 9.72mph S 19.22mph 0 0.000"
360134 4/16/2024 7:22am 72.81° F --° F 72.81° F 72.81° F 68.30° F 100.00% 72.81° F 1015.00mb 9.19mph S 16.46mph 0 0.000"
360133 4/16/2024 7:17am 70.66° F --° F 70.66° F 70.66° F 66.14° F 100.00% 70.66° F 1014.95mb 11.01mph S 21.26mph 0 0.000"
360132 4/16/2024 7:12am 70.47° F --° F 70.47° F 70.47° F 65.94° F 100.00% 70.47° F 1015.26mb 6.83mph S 12.34mph 0 0.000"
360131 4/16/2024 7:07am 70.41° F --° F 70.41° F 70.41° F 65.89° F 100.00% 70.41° F 1015.19mb 7.47mph S 15.08mph 0 0.000"
360130 4/16/2024 7:02am 70.38° F --° F 70.38° F 70.38° F 65.85° F 100.00% 70.38° F 1015.26mb 9.45mph S 19.88mph 0 0.000"
360129 4/16/2024 6:57am 70.32° F --° F 70.32° F 70.32° F 65.80° F 100.00% 70.32° F 1015.26mb 7.84mph S 14.41mph 0 0.000"
360128 4/16/2024 6:51am 70.27° F --° F 70.27° F 70.27° F 65.74° F 100.00% 70.27° F 1014.88mb 8.87mph S 13.72mph 0 0.000"
360127 4/16/2024 6:46am 70.25° F --° F 70.25° F 70.25° F 65.72° F 100.00% 70.25° F 1014.98mb 9.91mph S 17.84mph 0 0.000"
360126 4/16/2024 6:41am 70.23° F --° F 70.23° F 70.23° F 65.71° F 100.00% 70.23° F 1014.96mb 9.61mph S 16.46mph 0 0.000"
360125 4/16/2024 6:36am 70.23° F --° F 70.23° F 70.23° F 65.71° F 100.00% 70.23° F 1014.90mb 8.78mph S 16.46mph 0 0.000"
360124 4/16/2024 6:31am 70.27° F --° F 70.27° F 70.27° F 65.74° F 100.00% 70.27° F 1014.72mb 7.91mph S 16.46mph 0 0.000"
360123 4/16/2024 6:26am 70.30° F --° F 70.30° F 70.30° F 65.78° F 100.00% 70.30° F 1014.56mb 9.65mph S 17.15mph 0 0.000"
360122 4/16/2024 6:21am 70.34° F --° F 70.34° F 70.34° F 65.81° F 100.00% 70.34° F 1014.51mb 11.08mph S 17.84mph 0 0.000"
360121 4/16/2024 6:16am 70.39° F --° F 70.39° F 70.39° F 65.87° F 100.00% 70.39° F 1014.56mb 8.34mph S 15.77mph 0 0.000"
360120 4/16/2024 6:11am 70.47° F --° F 70.47° F 70.47° F 65.94° F 100.00% 70.47° F 1014.66mb 7.22mph S 15.77mph 0 0.000"
360119 4/16/2024 6:06am 70.59° F --° F 70.59° F 70.59° F 66.07° F 100.00% 70.59° F 1014.80mb 6.64mph S 15.77mph 0 0.000"
360118 4/16/2024 6:00am 70.75° F --° F 70.75° F 70.75° F 66.23° F 100.00% 70.75° F 1014.79mb 6.00mph S 10.96mph 0 0.000"
360117 4/16/2024 5:55am 71.01° F --° F 71.01° F 71.01° F 66.49° F 100.00% 71.01° F 1014.84mb 4.00mph S 7.54mph 0 0.000"
360116 4/16/2024 5:50am 71.33° F --° F 71.33° F 71.33° F 66.81° F 100.00% 71.33° F 1014.84mb 3.06mph N 9.61mph 0 0.000"
360115 4/16/2024 5:45am 71.78° F --° F 71.78° F 71.78° F 67.26° F 100.00% 71.78° F 1014.89mb 1.98mph NNW 4.80mph 0 0.000"
360114 4/16/2024 5:40am 72.39° F --° F 72.39° F 72.39° F 67.88° F 100.00% 72.39° F 1014.76mb 2.02mph N 4.11mph 0 0.000"
360113 4/16/2024 5:35am 73.20° F --° F 73.20° F 73.20° F 68.70° F 100.00% 73.20° F 1014.58mb 4.09mph S 9.61mph 0 0.000"
360112 4/16/2024 5:30am 73.13° F --° F 73.13° F 73.13° F 68.62° F 100.00% 73.13° F 1014.47mb 4.23mph S 8.92mph 0 0.000"
360111 4/16/2024 5:25am 71.67° F --° F 71.67° F 71.67° F 67.16° F 100.00% 71.67° F 1014.52mb 4.67mph S 10.30mph 0 0.000"
360110 4/16/2024 5:20am 69.62° F --° F 69.62° F 69.62° F 65.09° F 100.00% 69.62° F 1014.46mb 5.79mph S 13.72mph 0 0.000"
360109 4/16/2024 5:15am 69.49° F --° F 69.49° F 69.49° F 64.96° F 100.00% 69.49° F 1014.24mb 7.26mph S 10.30mph 0 0.000"
360108 4/16/2024 5:10am 69.55° F --° F 69.55° F 69.55° F 65.02° F 100.00% 69.55° F 1014.40mb 4.99mph S 9.61mph 0 0.000"
360107 4/16/2024 5:05am 69.58° F --° F 69.58° F 69.58° F 65.05° F 100.00% 69.58° F 1014.59mb 5.70mph S 10.96mph 0 0.000"
360106 4/16/2024 5:00am 69.62° F --° F 69.62° F 69.62° F 65.09° F 100.00% 69.62° F 1014.60mb 4.34mph S 7.54mph 0 0.000"
360105 4/16/2024 4:54am 69.67° F --° F 69.67° F 69.67° F 65.14° F 100.00% 69.67° F 1014.73mb 4.41mph S 8.92mph 0 0.000"
360104 4/16/2024 4:49am 69.73° F --° F 69.73° F 69.73° F 65.20° F 100.00% 69.73° F 1014.86mb 1.03mph N 4.11mph 0 0.000"
360103 4/16/2024 4:44am 69.78° F --° F 69.78° F 69.78° F 65.25° F 100.00% 69.78° F 1015.02mb 0.00mph -- 0.69mph 0 0.000"
360102 4/16/2024 4:39am 69.85° F --° F 69.85° F 69.85° F 65.32° F 100.00% 69.85° F 1015.01mb 1.49mph N 4.80mph 0 0.000"
360101 4/16/2024 4:34am 69.96° F --° F 69.96° F 69.96° F 65.43° F 100.00% 69.96° F 1014.89mb 3.06mph S 5.49mph 0 0.000"
360100 4/16/2024 4:29am 70.03° F --° F 70.03° F 70.03° F 65.51° F 100.00% 70.03° F 1015.01mb 2.92mph S 6.18mph 0 0.000"
360099 4/16/2024 4:24am 70.09° F --° F 70.09° F 70.09° F 65.56° F 100.00% 70.09° F 1015.28mb 0.21mph N 2.74mph 0 0.000"
360098 4/16/2024 4:19am 70.18° F --° F 70.18° F 70.18° F 65.65° F 100.00% 70.18° F 1015.15mb 1.43mph NNW 4.11mph 0 0.000"
360097 4/16/2024 4:14am 70.30° F --° F 70.30° F 70.30° F 65.78° F 100.00% 70.30° F 1014.89mb 4.14mph S 7.54mph 0 0.000"
360096 4/16/2024 4:09am 70.43° F --° F 70.43° F 70.43° F 65.91° F 100.00% 70.43° F 1014.98mb 4.37mph S 6.85mph 0 0.000"
360095 4/16/2024 4:04am 70.50° F --° F 70.50° F 70.50° F 65.98° F 100.00% 70.50° F 1014.99mb 4.37mph S 7.54mph 0 0.000"
360094 4/16/2024 3:59am 70.70° F --° F 70.70° F 70.70° F 66.18° F 100.00% 70.70° F 1015.07mb 3.33mph S 6.85mph 0 0.000"
360093 4/16/2024 3:54am 70.97° F --° F 70.97° F 70.97° F 66.45° F 100.00% 70.97° F 1015.06mb 2.69mph N 7.54mph 0 0.000"
360092 4/16/2024 3:49am 71.38° F --° F 71.38° F 71.38° F 66.87° F 100.00% 71.38° F 1014.78mb 4.94mph S 9.61mph 0 0.000"
360091 4/16/2024 3:44am 72.00° F --° F 72.00° F 72.00° F 67.48° F 100.00% 72.00° F 1014.49mb 8.71mph S 19.88mph 0 0.000"
360090 4/16/2024 3:38am 72.93° F --° F 72.93° F 72.93° F 68.42° F 100.00% 72.93° F 1014.32mb 9.70mph S 15.08mph 0 0.000"
360089 4/16/2024 3:33am 73.99° F --° F 73.99° F 73.99° F 69.49° F 100.00% 73.99° F 1014.65mb 6.92mph S 10.96mph 0 0.000"
360088 4/16/2024 3:28am 73.74° F --° F 73.74° F 73.74° F 69.24° F 100.00% 73.74° F 1014.97mb 4.74mph S 7.54mph 0 0.000"
360087 4/16/2024 3:23am 72.70° F --° F 72.70° F 72.70° F 68.19° F 100.00% 72.70° F 1015.07mb 5.65mph S 8.92mph 0 0.000"
360086 4/16/2024 3:18am 70.84° F --° F 70.84° F 70.84° F 66.32° F 100.00% 70.84° F 1015.08mb 5.82mph S 9.61mph 0 0.000"
360085 4/16/2024 3:13am 70.45° F --° F 70.45° F 70.45° F 65.92° F 100.00% 70.45° F 1015.21mb 5.36mph S 8.23mph 0 0.000"
360084 4/16/2024 3:08am 70.54° F --° F 70.54° F 70.54° F 66.01° F 100.00% 70.54° F 1015.22mb 4.67mph S 7.54mph 0 0.000"
360083 4/16/2024 3:03am 70.63° F --° F 70.63° F 70.63° F 66.10° F 100.00% 70.63° F 1015.21mb 4.87mph S 9.61mph 0 0.000"
360082 4/16/2024 2:58am 70.70° F --° F 70.70° F 70.70° F 66.18° F 100.00% 70.70° F 1015.23mb 3.93mph S 6.85mph 0 0.000"
360081 4/16/2024 2:53am 70.81° F --° F 70.81° F 70.81° F 66.29° F 100.00% 70.81° F 1015.48mb 2.62mph S 4.80mph 0 0.000"
360080 4/16/2024 2:47am 70.88° F --° F 70.88° F 70.88° F 66.36° F 100.00% 70.88° F 1015.54mb 4.09mph S 7.54mph 0 0.000"
360079 4/16/2024 2:42am 70.93° F --° F 70.93° F 70.93° F 66.41° F 100.00% 70.93° F 1015.43mb 3.20mph S 7.54mph 0 0.000"
360078 4/16/2024 2:37am 70.99° F --° F 70.99° F 70.99° F 66.47° F 100.00% 70.99° F 1015.54mb 5.08mph S 10.30mph 0 0.000"
360077 4/16/2024 2:32am 71.08° F --° F 71.08° F 71.08° F 66.56° F 100.00% 71.08° F 1015.52mb 4.78mph S 7.54mph 0 0.000"
360076 4/16/2024 2:27am 71.13° F --° F 71.13° F 71.13° F 66.61° F 100.00% 71.13° F 1015.55mb 4.80mph S 7.54mph 0 0.000"
360075 4/16/2024 2:22am 71.20° F --° F 71.20° F 71.20° F 66.68° F 100.00% 71.20° F 1015.46mb 5.03mph S 9.61mph 0 0.000"
360074 4/16/2024 2:17am 71.26° F --° F 71.26° F 71.26° F 66.74° F 100.00% 71.26° F 1015.46mb 5.10mph S 10.30mph 0 0.000"
360073 4/16/2024 2:12am 71.31° F --° F 71.31° F 71.31° F 66.79° F 100.00% 71.31° F 1015.56mb 4.05mph S 10.30mph 0 0.000"
360071 4/16/2024 2:07am 71.42° F --° F 71.42° F 71.42° F 66.90° F 100.00% 71.42° F 1015.61mb 6.09mph S 10.96mph 0 0.000"
360072 4/16/2024 2:01am 71.56° F --° F 71.56° F 71.56° F 67.05° F 100.00% 71.56° F 1015.67mb 4.37mph S 8.23mph 0 0.000"
360070 4/16/2024 1:55am 71.69° F --° F 71.69° F 71.69° F 67.17° F 100.00% 71.69° F 1015.52mb 5.24mph S 10.96mph 0 0.000"
360069 4/16/2024 1:50am 71.82° F --° F 71.82° F 71.82° F 67.30° F 100.00% 71.82° F 1015.42mb 5.86mph S 10.96mph 0 0.000"
360068 4/16/2024 1:45am 72.03° F --° F 72.03° F 72.03° F 67.52° F 100.00% 72.03° F 1015.45mb 6.39mph S 12.34mph 0 0.000"
360067 4/16/2024 1:40am 72.28° F --° F 72.28° F 72.28° F 67.77° F 100.00% 72.28° F 1015.51mb 6.60mph S 14.41mph 0 0.000"
360066 4/16/2024 1:35am 72.59° F --° F 72.59° F 72.59° F 68.08° F 100.00% 72.59° F 1015.63mb 6.78mph S 10.30mph 0 0.000"
360065 4/16/2024 1:30am 72.97° F --° F 72.97° F 72.97° F 68.46° F 100.00% 72.97° F 1015.66mb 5.86mph S 12.34mph 0 0.000"
360064 4/16/2024 1:25am 73.53° F --° F 73.53° F 73.53° F 69.02° F 100.00% 73.53° F 1015.50mb 7.93mph S 13.03mph 0 0.000"
360063 4/16/2024 1:20am 74.39° F --° F 74.39° F 62.00° F 69.89° F 100.00% 74.39° F 1015.39mb 8.09mph S 14.41mph 0 0.000"
360062 4/16/2024 1:15am 75.36° F --° F 75.36° F 62.67° F 70.87° F 100.00% 75.36° F 1015.40mb 9.72mph S 15.77mph 0 0.000"
360061 4/16/2024 1:10am 75.04° F --° F 75.04° F 61.06° F 70.55° F 100.00% 75.04° F 1015.42mb 10.46mph S 16.46mph 0 0.000"
360060 4/16/2024 1:05am 73.85° F --° F 73.85° F 73.85° F 69.35° F 100.00% 73.85° F 1015.40mb 8.11mph S 16.46mph 0 0.000"
360059 4/16/2024 12:59am 71.98° F --° F 71.98° F 71.98° F 67.46° F 100.00% 71.98° F 1015.34mb 10.85mph S 19.88mph 0 0.000"
360058 4/16/2024 12:54am 71.94° F --° F 71.94° F 71.94° F 67.43° F 100.00% 71.94° F 1015.31mb 9.54mph S 15.77mph 0 0.000"
360057 4/16/2024 12:49am 72.05° F --° F 72.05° F 72.05° F 67.54° F 100.00% 72.05° F 1015.49mb 8.74mph S 13.72mph 0 0.000"
360056 4/16/2024 12:44am 72.07° F --° F 72.07° F 72.07° F 67.55° F 100.00% 72.07° F 1015.59mb 8.11mph S 17.15mph 0 0.000"
360055 4/16/2024 12:39am 72.16° F --° F 72.16° F 72.16° F 67.65° F 100.00% 72.16° F 1015.47mb 8.28mph S 15.08mph 0 0.000"
360054 4/16/2024 12:34am 72.25° F --° F 72.25° F 72.25° F 67.74° F 100.00% 72.25° F 1015.53mb 7.93mph S 16.46mph 0 0.000"
360053 4/16/2024 12:29am 72.34° F --° F 72.34° F 72.34° F 67.83° F 100.00% 72.34° F 1015.50mb 9.06mph S 15.08mph 0 0.000"
360052 4/16/2024 12:24am 72.39° F --° F 72.39° F 72.39° F 67.88° F 100.00% 72.39° F 1015.50mb 10.25mph S 20.57mph 0 0.000"
360051 4/16/2024 12:19am 72.52° F --° F 72.52° F 72.52° F 68.01° F 100.00% 72.52° F 1015.48mb 7.86mph S 15.77mph 0 0.000"
360050 4/16/2024 12:14am 72.64° F --° F 72.64° F 72.64° F 68.13° F 100.00% 72.64° F 1015.48mb 9.42mph S 14.41mph 0 0.000"
360049 4/16/2024 12:08am 72.82° F --° F 72.82° F 72.82° F 68.32° F 100.00% 72.82° F 1015.33mb 8.23mph S 15.77mph 0 0.000"
360048 4/16/2024 12:03am 72.97° F --° F 72.97° F 72.97° F 68.46° F 100.00% 72.97° F 1015.36mb 8.09mph S 13.72mph 0 0.000"
360047 4/15/2024 11:58pm 73.17° F --° F 73.17° F 73.17° F 68.66° F 100.00% 73.17° F 1015.43mb 8.41mph S 14.41mph 0 0.000"
360046 4/15/2024 11:53pm 73.49° F --° F 73.49° F 73.49° F 68.99° F 100.00% 73.49° F 1015.51mb 10.05mph S 21.26mph 0 0.000"
360045 4/15/2024 11:48pm 73.94° F --° F 73.94° F 73.94° F 69.44° F 100.00% 73.94° F 1015.48mb 7.03mph S 13.72mph 0 0.000"
360044 4/15/2024 11:43pm 74.55° F --° F 74.55° F 63.79° F 70.06° F 100.00% 74.55° F 1015.65mb 6.78mph S 12.34mph 0 0.000"
360043 4/15/2024 11:38pm 75.38° F --° F 75.38° F 63.43° F 70.89° F 100.00% 75.38° F 1015.69mb 9.06mph S 15.77mph 0 0.000"
360042 4/15/2024 11:33pm 76.28° F --° F 76.28° F 68.52° F 71.80° F 100.00% 76.28° F 1015.72mb 6.57mph S 12.34mph 0 0.000"
360041 4/15/2024 11:28pm 75.69° F --° F 75.69° F 67.21° F 71.20° F 100.00% 75.69° F 1015.74mb 6.30mph S 11.65mph 0 0.000"
360040 4/15/2024 11:23pm 74.32° F --° F 74.32° F 62.97° F 69.82° F 100.00% 74.32° F 1015.77mb 7.03mph S 13.03mph 0 0.000"
360039 4/15/2024 11:17pm 73.26° F --° F 73.26° F 73.26° F 68.75° F 100.00% 73.26° F 1015.74mb 6.09mph S 11.65mph 0 0.000"
360038 4/15/2024 11:12pm 73.42° F --° F 73.42° F 73.42° F 68.91° F 100.00% 73.42° F 1015.77mb 6.99mph S 12.34mph 0 0.000"
360037 4/15/2024 11:07pm 73.62° F --° F 73.62° F 73.62° F 69.11° F 100.00% 73.62° F 1015.94mb 7.59mph S 13.03mph 0 0.000"
360036 4/15/2024 11:02pm 73.76° F --° F 73.76° F 73.76° F 69.26° F 100.00% 73.76° F 1016.03mb 6.25mph S 10.96mph 0 0.000"
360035 4/15/2024 10:57pm 73.98° F --° F 73.98° F 73.98° F 69.48° F 100.00% 73.98° F 1016.11mb 7.06mph S 12.34mph 0 0.000"
360034 4/15/2024 10:52pm 74.28° F --° F 74.28° F 63.36° F 69.78° F 100.00% 74.28° F 1016.16mb 6.57mph S 10.96mph 0 0.000"
360033 4/15/2024 10:47pm 74.64° F --° F 74.64° F 63.79° F 70.15° F 100.00% 74.64° F 1016.17mb 6.99mph S 14.41mph 0 0.000"
360032 4/15/2024 10:42pm 75.16° F --° F 75.16° F 66.87° F 70.67° F 100.00% 75.16° F 1016.14mb 5.33mph S 17.84mph 0 0.000"
360031 4/15/2024 10:37pm 75.79° F --° F 75.79° F 66.88° F 71.31° F 100.00% 75.79° F 1016.16mb 6.85mph S 13.03mph 0 0.000"
360030 4/15/2024 10:31pm 76.75° F --° F 76.75° F 67.91° F 72.27° F 100.00% 76.75° F 1016.13mb 8.37mph S 15.08mph 0 0.000"
360029 4/15/2024 10:26pm 77.07° F --° F 77.07° F 69.04° F 72.59° F 100.00% 77.07° F 1016.05mb 8.18mph S 15.77mph 0 0.000"
360028 4/15/2024 10:21pm 76.51° F --° F 76.51° F 68.34° F 72.03° F 100.00% 76.51° F 1016.10mb 7.33mph S 11.65mph 0 0.000"
360027 4/15/2024 10:16pm 75.15° F --° F 75.15° F 63.73° F 70.65° F 100.00% 75.15° F 1016.07mb 8.23mph S 14.41mph 0 0.000"
360026 4/15/2024 10:11pm 74.07° F --° F 74.07° F 62.59° F 69.57° F 100.00% 74.07° F 1016.01mb 6.83mph S 12.34mph 0 0.000"
360025 4/15/2024 10:06pm 74.17° F --° F 74.17° F 63.77° F 69.68° F 100.00% 74.17° F 1016.06mb 5.95mph S 15.08mph 0 0.000"
360024 4/15/2024 10:01pm 74.32° F --° F 74.32° F 62.52° F 69.82° F 100.00% 74.32° F 1016.06mb 7.45mph S 13.03mph 0 0.000"
360023 4/15/2024 9:56pm 74.48° F --° F 74.48° F 63.07° F 69.98° F 100.00% 74.48° F 1016.13mb 7.29mph S 16.46mph 0 0.000"
360022 4/15/2024 9:51pm 74.71° F --° F 74.71° F 65.02° F 70.22° F 100.00% 74.71° F 1016.18mb 6.00mph S 12.34mph 0 0.000"
360021 4/15/2024 9:46pm 74.95° F --° F 74.95° F 66.30° F 70.46° F 100.00% 74.95° F 1016.22mb 5.36mph S 8.23mph 0 0.000"
360020 4/15/2024 9:40pm 75.16° F --° F 75.16° F 67.75° F 70.67° F 100.00% 75.16° F 1016.20mb 4.51mph S 13.03mph 0 0.000"
360019 4/15/2024 9:35pm 75.40° F --° F 75.40° F 67.28° F 70.91° F 100.00% 75.40° F 1016.13mb 5.52mph S 11.65mph 0 0.000"
360018 4/15/2024 9:30pm 75.69° F --° F 75.69° F 67.11° F 71.20° F 100.00% 75.69° F 1016.23mb 6.39mph S 11.65mph 0 0.000"
360017 4/15/2024 9:25pm 76.10° F --° F 76.10° F 67.70° F 71.62° F 100.00% 76.10° F 1016.23mb 6.87mph S 12.34mph 0 0.000"
360016 4/15/2024 9:20pm 76.64° F --° F 76.64° F 70.21° F 72.16° F 100.00% 76.64° F 1016.22mb 5.93mph S 10.96mph 0 0.000"
360015 4/15/2024 9:15pm 77.29° F --° F 77.29° F 71.83° F 72.81° F 100.00% 77.29° F 1016.09mb 6.18mph S 11.65mph 0 0.000"
360014 4/15/2024 9:10pm 78.12° F --° F 78.12° F 73.41° F 73.65° F 100.00% 78.12° F 1016.15mb 7.06mph S 13.03mph 0 0.000"
360013 4/15/2024 9:05pm 78.71° F --° F 78.71° F 75.24° F 74.24° F 100.00% 78.71° F 1016.05mb 7.10mph S 13.03mph 0 0.000"
360012 4/15/2024 9:00pm 78.06° F --° F 78.06° F 74.02° F 73.59° F 100.00% 78.06° F 1016.02mb 6.32mph S 14.41mph 0 0.000"
360011 4/15/2024 8:55pm 76.89° F --° F 76.89° F 68.31° F 72.41° F 100.00% 76.89° F 1016.05mb 8.37mph S 13.72mph 0 0.000"
360010 4/15/2024 8:50pm 76.03° F --° F 76.03° F 65.95° F 71.54° F 100.00% 76.03° F 1016.00mb 8.32mph S 15.77mph 0 0.000"
360009 4/15/2024 8:44pm 76.26° F --° F 76.26° F 69.57° F 71.78° F 100.00% 76.26° F 1016.04mb 5.54mph S 15.08mph 0 0.000"
360008 4/15/2024 8:39pm 76.44° F --° F 76.44° F 68.78° F 71.96° F 100.00% 76.44° F 1015.95mb 6.74mph S 11.65mph 0 0.000"
360007 4/15/2024 8:34pm 76.73° F --° F 76.73° F 68.17° F 72.25° F 100.00% 76.73° F 1016.03mb 8.07mph S 13.72mph 0 0.000"
360006 4/15/2024 8:29pm 77.09° F --° F 77.09° F 69.88° F 72.61° F 100.00% 77.09° F 1015.88mb 7.45mph S 14.41mph 0 0.000"
360005 4/15/2024 8:24pm 77.54° F --° F 77.54° F 70.82° F 73.07° F 100.00% 77.54° F 1015.76mb 7.82mph S 14.41mph 0 0.000"
360004 4/15/2024 8:19pm 78.22° F --° F 78.22° F 73.87° F 73.75° F 100.00% 78.22° F 1015.72mb 6.92mph S 15.77mph 0 0.000"
360003 4/15/2024 8:14pm 79.07° F --° F 79.07° F 78.11° F 74.61° F 100.00% 79.07° F 1015.66mb 5.52mph S 10.96mph 0 0.000"
360002 4/15/2024 8:09pm 80.11° F --° F 80.11° F 79.71° F 75.66° F 100.00% 80.11° F 1015.76mb 7.33mph S 16.46mph 0 0.000"
360001 4/15/2024 8:04pm 80.35° F --° F 80.35° F 79.79° F 75.89° F 100.00% 80.35° F 1015.49mb 8.05mph S 13.03mph 0 0.000"
360000 4/15/2024 7:59pm 80.19° F --° F 80.19° F 80.61° F 75.73° F 100.00% 80.19° F 1015.50mb 6.76mph S 13.03mph 0 0.000"
359999 4/15/2024 7:53pm 79.77° F --° F 79.77° F 78.29° F 75.31° F 100.00% 79.77° F 1015.52mb 7.56mph S 14.41mph 0 0.000"
359998 4/15/2024 7:48pm 78.80° F --° F 78.80° F 74.57° F 74.33° F 100.00% 78.80° F 1015.48mb 8.00mph S 14.41mph 0 0.000"
359997 4/15/2024 7:43pm 78.26° F --° F 78.26° F 73.66° F 73.79° F 100.00% 78.26° F 1015.37mb 7.24mph S 14.41mph 0 0.000"
359996 4/15/2024 7:38pm 78.73° F --° F 78.73° F 74.99° F 74.26° F 100.00% 78.73° F 1015.28mb 7.40mph S 15.77mph 0 0.000"
359995 4/15/2024 7:33pm 79.30° F --° F 79.30° F 76.41° F 74.41° F 96.16% 78.35° F 1015.13mb 7.45mph S 13.03mph 0 0.000"
359994 4/15/2024 7:28pm 80.02° F --° F 80.02° F 77.28° F 74.42° F 90.23% 77.53° F 1015.17mb 7.88mph S 13.72mph 0 0.000"
359993 4/15/2024 7:23pm 80.89° F --° F 80.89° F 78.31° F 74.59° F 84.93% 76.94° F 1015.20mb 8.23mph S 13.72mph 0 0.000"
359992 4/15/2024 7:18pm 81.95° F --° F 81.95° F 83.13° F 75.27° F 82.33% 77.23° F 1015.23mb 5.72mph S 10.96mph 0 0.000"
359991 4/15/2024 7:13pm 82.04° F --° F 82.04° F 81.22° F 75.47° F 83.27% 77.59° F 1015.25mb 7.95mph S 13.72mph 0 0.000"
359990 4/15/2024 7:07pm 81.81° F --° F 81.81° F 80.53° F 75.50° F 85.18% 77.91° F 1015.27mb 8.48mph S 16.46mph 0 0.000"
359989 4/15/2024 7:02pm 80.92° F --° F 80.92° F 81.59° F 75.15° F 89.06% 78.11° F 1015.26mb 6.02mph S 14.41mph 0 0.000"
359988 4/15/2024 6:57pm 80.91° F --° F 80.91° F 79.03° F 74.12° F 81.43% 75.95° F 1015.25mb 6.97mph S 15.08mph 0 0.000"
359987 4/15/2024 6:52pm 81.61° F --° F 81.61° F 77.79° F 74.04° F 76.08% 75.02° F 1015.25mb 8.57mph S 19.88mph 0 0.000"
359986 4/15/2024 6:47pm 82.26° F --° F 82.26° F 78.00° F 73.85° F 71.02% 74.02° F 1015.22mb 8.55mph S 17.15mph 0 0.000"
359985 4/15/2024 6:42pm 83.26° F --° F 83.26° F 75.38° F 74.23° F 67.76% 73.86° F 1015.09mb 12.05mph S 21.26mph 0 0.000"
359984 4/15/2024 6:37pm 84.47° F --° F 84.47° F 77.87° F 75.11° F 66.32% 74.50° F 1015.06mb 11.56mph S 18.53mph 0 0.000"
359983 4/15/2024 6:32pm 84.58° F --° F 84.58° F 83.79° F 75.28° F 66.71% 74.74° F 1015.05mb 6.37mph S 12.34mph 0 0.000"
359982 4/15/2024 6:27pm 84.24° F --° F 84.24° F 78.66° F 75.32° F 68.78% 75.14° F 1015.07mb 11.13mph S 18.53mph 0 0.000"
359981 4/15/2024 6:22pm 83.64° F --° F 83.64° F 79.85° F 74.91° F 69.66% 74.87° F 1015.14mb 9.10mph S 16.46mph 0 0.000"
359980 4/15/2024 6:16pm 83.86° F --° F 83.86° F 77.09° F 74.40° F 65.61% 73.67° F 1015.07mb 10.96mph S 19.22mph 0 0.000"
359979 4/15/2024 6:11pm 84.45° F --° F 84.45° F 81.95° F 74.57° F 63.57% 73.49° F 1014.99mb 6.90mph S 15.08mph 0 0.000"
359978 4/15/2024 6:06pm 85.03° F --° F 85.03° F 78.39° F 74.75° F 61.78% 73.36° F 1015.01mb 10.71mph S 19.22mph 0 0.000"
359977 4/15/2024 6:01pm 85.93° F --° F 85.93° F 81.58° F 75.17° F 59.81% 73.44° F 1014.94mb 8.69mph S 16.46mph 0 0.000"
359976 4/15/2024 5:56pm 86.54° F --° F 86.54° F 81.74° F 75.49° F 58.64% 73.54° F 1014.99mb 9.22mph S 17.15mph 0 0.000"
359975 4/15/2024 5:51pm 86.43° F --° F 86.43° F 83.41° F 75.45° F 58.89% 73.54° F 1014.94mb 7.56mph S 13.03mph 0 0.000"
359974 4/15/2024 5:46pm 85.95° F --° F 85.95° F 80.90° F 75.29° F 60.20% 73.61° F 1015.01mb 9.49mph S 16.46mph 0 0.000"
359973 4/15/2024 5:41pm 85.05° F --° F 85.05° F 77.43° F 74.34° F 59.59% 72.54° F 1015.03mb 10.99mph S 21.26mph 0 0.000"
359972 4/15/2024 5:36pm 85.48° F --° F 85.48° F 81.01° F 74.48° F 58.29% 72.42° F 1015.04mb 7.98mph S 20.57mph 0 0.000"
359971 4/15/2024 5:30pm 85.93° F --° F 85.93° F 80.04° F 74.83° F 58.05% 72.74° F 1015.10mb 9.56mph S 23.33mph 0 0.000"
359970 4/15/2024 5:25pm 86.36° F --° F 86.36° F 80.78° F 75.07° F 57.46% 72.90° F 1015.10mb 9.40mph S 14.41mph 0 0.000"
359969 4/15/2024 5:20pm 86.88° F --° F 86.88° F 80.54° F 75.35° F 56.55% 73.00° F 1015.15mb 10.21mph S 19.88mph 0 0.000"
359968 4/15/2024 5:15pm 87.64° F --° F 87.64° F 84.37° F 76.29° F 57.86% 74.24° F 1015.08mb 8.48mph S 18.53mph 0 0.000"
359967 4/15/2024 5:10pm 87.31° F --° F 87.31° F 82.40° F 76.26° F 59.04% 74.41° F 1015.19mb 10.16mph S 20.57mph 0 0.000"
359966 4/15/2024 5:05pm 87.24° F --° F 87.24° F 81.86° F 75.95° F 57.92% 73.89° F 1015.17mb 10.11mph S 15.77mph 0 0.000"
359965 4/15/2024 5:00pm 87.66° F --° F 87.66° F 81.33° F 75.86° F 55.81% 73.41° F 1015.19mb 10.57mph S 18.53mph 0 0.000"
359964 4/15/2024 4:55pm 87.82° F --° F 87.82° F 82.22° F 76.14° F 56.34% 73.78° F 1015.16mb 10.23mph S 20.57mph 0 0.000"
359963 4/15/2024 4:50pm 87.49° F --° F 87.49° F 80.78° F 76.11° F 57.60% 73.99° F 1015.24mb 11.45mph S 24.69mph 0 0.000"
359962 4/15/2024 4:45pm 87.62° F --° F 87.62° F 80.80° F 76.09° F 56.93% 73.84° F 1015.18mb 11.42mph S 21.26mph 0 0.000"
359961 4/15/2024 4:40pm 88.30° F --° F 88.30° F 85.64° F 75.71° F 52.62% 72.62° F 1015.18mb 6.46mph S 13.72mph 0 0.000"
359960 4/15/2024 4:34pm 88.93° F --° F 88.93° F 88.43° F 76.29° F 52.76% 73.26° F 1015.25mb 5.01mph S 15.08mph 0 0.000"
359959 4/15/2024 4:29pm 89.26° F --° F 89.26° F 89.46° F 77.01° F 54.60% 74.36° F 1015.25mb 5.42mph S 10.96mph 0 0.000"
359958 4/15/2024 4:24pm 88.84° F --° F 88.84° F 87.14° F 76.66° F 54.67% 74.01° F 1015.23mb 6.83mph S 15.77mph 0 0.000"
359957 4/15/2024 4:19pm 88.32° F --° F 88.32° F 85.53° F 76.74° F 57.10% 74.55° F 1015.25mb 8.37mph S 17.84mph 0 0.000"
359956 4/15/2024 4:14pm 87.66° F --° F 87.66° F 83.28° F 75.73° F 55.23% 73.17° F 1015.23mb 8.53mph S 19.88mph 0 0.000"
359955 4/15/2024 4:09pm 87.03° F --° F 87.03° F 83.51° F 75.94° F 58.71% 74.02° F 1015.25mb 8.48mph S 17.15mph 0 0.000"
359954 4/15/2024 4:04pm 86.77° F --° F 86.77° F 81.15° F 75.54° F 57.92% 73.46° F 1015.31mb 9.93mph S 17.15mph 0 0.000"
359953 4/15/2024 3:59pm 86.77° F --° F 86.77° F 84.56° F 76.13° F 60.72% 74.57° F 1015.34mb 7.77mph S 16.46mph 0 0.000"
359952 4/15/2024 3:54pm 86.97° F --° F 86.97° F 82.30° F 75.94° F 58.94% 74.06° F 1015.29mb 9.59mph S 16.46mph 0 0.000"
359951 4/15/2024 3:48pm 87.31° F --° F 87.31° F 88.16° F 76.59° F 60.59% 75.02° F 1015.35mb 5.40mph S 15.77mph 0 0.000"
359950 4/15/2024 3:43pm 87.46° F --° F 87.46° F 81.30° F 75.80° F 56.27% 73.42° F 1015.43mb 10.41mph S 19.88mph 0 0.000"
359949 4/15/2024 3:38pm 88.30° F --° F 88.30° F 86.10° F 76.39° F 55.60% 73.91° F 1015.34mb 7.19mph S 14.41mph 0 0.000"
359948 4/15/2024 3:33pm 87.40° F --° F 87.40° F 86.29° F 75.52° F 55.28% 72.95° F 1015.43mb 5.29mph S 13.03mph 0 0.000"
359947 4/15/2024 3:28pm 87.06° F --° F 87.06° F 80.36° F 75.12° F 54.78% 72.43° F 1015.51mb 10.07mph S 17.84mph 0 0.000"
359946 4/15/2024 3:23pm 86.70° F --° F 86.70° F 85.92° F 75.39° F 57.52% 73.24° F 1015.52mb 5.22mph S 9.61mph 0 0.000"
359945 4/15/2024 3:18pm 86.97° F --° F 86.97° F 84.68° F 75.67° F 57.71% 73.56° F 1015.65mb 6.92mph S 16.46mph 0 0.000"
359944 4/15/2024 3:13pm 87.06° F --° F 87.06° F 83.53° F 75.80° F 57.97% 73.75° F 1015.62mb 8.25mph S 20.57mph 0 0.000"
359943 4/15/2024 3:08pm 86.95° F --° F 86.95° F 82.01° F 75.93° F 59.00% 74.06° F 1015.71mb 9.84mph S 20.57mph 0 0.000"
359942 4/15/2024 3:03pm 87.03° F --° F 87.03° F 78.80° F 75.71° F 57.68% 73.60° F 1015.75mb 12.50mph S 19.88mph 0 0.000"
359941 4/15/2024 2:58pm 87.76° F --° F 87.76° F 85.89° F 76.83° F 59.83% 75.14° F 1015.80mb 8.09mph S 16.46mph 0 0.000"
359940 4/15/2024 2:52pm 87.15° F --° F 87.15° F 84.25° F 76.25° F 59.71% 74.53° F 1015.92mb 8.39mph S 15.08mph 0 0.000"
359939 4/15/2024 2:47pm 87.30° F --° F 87.30° F 83.39° F 76.64° F 60.88% 75.12° F 1016.03mb 9.95mph S 17.84mph 0 0.000"
359938 4/15/2024 2:42pm 86.34° F --° F 86.34° F 84.45° F 76.91° F 66.78% 76.42° F 1016.10mb 9.36mph S 15.08mph 0 0.000"
359937 4/15/2024 2:37pm 84.69° F --° F 84.69° F 83.09° F 76.34° F 72.30% 76.75° F 1016.19mb 9.10mph S 18.53mph 0 0.000"
359936 4/15/2024 2:32pm 84.92° F --° F 84.92° F 81.38° F 75.13° F 64.16% 74.14° F 1016.30mb 8.46mph S 15.08mph 0 0.000"
359935 4/15/2024 2:27pm 85.46° F --° F 85.46° F 82.16° F 75.17° F 61.90% 73.81° F 1016.21mb 8.00mph S 15.77mph 0 0.000"
359934 4/15/2024 2:22pm 86.29° F --° F 86.29° F 84.01° F 75.19° F 58.23% 73.14° F 1016.30mb 6.53mph S 15.77mph 0 0.000"
359933 4/15/2024 2:17pm 87.13° F --° F 87.13° F 84.74° F 75.59° F 56.59% 73.25° F 1016.37mb 6.74mph S 13.72mph 0 0.000"
359932 4/15/2024 2:12pm 87.08° F --° F 87.08° F 83.15° F 75.81° F 57.92% 73.75° F 1016.52mb 8.62mph S 19.22mph 0 0.000"
359931 4/15/2024 2:06pm 86.59° F --° F 86.59° F 82.71° F 75.98° F 60.75% 74.41° F 1016.58mb 9.17mph S 20.57mph 0 0.000"
359930 4/15/2024 2:01pm 86.04° F --° F 86.04° F 83.35° F 75.81° F 62.44% 74.55° F 1016.58mb 8.14mph S 17.15mph 0 0.000"
359929 4/15/2024 1:56pm 85.30° F --° F 85.30° F 81.33° F 74.95° F 61.55% 73.52° F 1016.69mb 8.37mph S 15.08mph 0 0.000"
359928 4/15/2024 1:51pm 85.93° F --° F 85.93° F 79.17° F 75.30° F 60.38% 73.66° F 1016.71mb 11.13mph S 19.22mph 0 0.000"
359927 4/15/2024 1:46pm 86.85° F --° F 86.85° F 83.68° F 76.55° F 62.48% 75.32° F 1016.54mb 9.42mph S 21.95mph 0 0.000"
359926 4/15/2024 1:41pm 87.15° F --° F 87.15° F 85.27° F 76.33° F 60.02% 74.65° F 1016.53mb 7.56mph S 13.03mph 0 0.000"
359925 4/15/2024 1:36pm 87.49° F --° F 87.49° F 83.38° F 76.72° F 60.42% 75.12° F 1016.71mb 10.14mph S 21.95mph 0 0.000"
359924 4/15/2024 1:31pm 87.53° F --° F 87.53° F 83.37° F 76.48° F 59.16% 74.66° F 1016.76mb 9.72mph S 23.33mph 0 0.000"
359923 4/15/2024 1:26pm 87.55° F --° F 87.55° F 84.83° F 76.93° F 61.27% 75.51° F 1016.74mb 9.26mph S 19.22mph 0 0.000"
359922 4/15/2024 1:21pm 87.10° F --° F 87.10° F 86.14° F 76.47° F 60.97% 74.97° F 1016.81mb 7.03mph S 20.57mph 0 0.000"
359921 4/15/2024 1:15pm 86.85° F --° F 86.85° F 87.43° F 77.09° F 65.30% 76.37° F 1016.87mb 7.06mph S 17.84mph 0 0.000"
359920 4/15/2024 1:10pm 86.49° F --° F 86.49° F 84.25° F 77.19° F 67.61% 76.86° F 1016.91mb 10.21mph S 18.53mph 0 0.000"
359919 4/15/2024 1:05pm 85.30° F --° F 85.30° F 88.01° F 77.60° F 76.46% 78.68° F 1016.88mb 7.54mph S 15.08mph 0 0.000"
359918 4/15/2024 1:00pm 84.88° F --° F 84.88° F 81.04° F 75.36° F 65.71% 74.67° F 1016.95mb 9.19mph S 18.53mph 0 0.000"
359917 4/15/2024 12:55pm 85.30° F --° F 85.30° F 84.40° F 76.12° F 67.77% 75.79° F 1016.96mb 7.59mph S 15.77mph 0 0.000"
359916 4/15/2024 12:50pm 84.54° F --° F 84.54° F 82.51° F 76.50° F 74.09% 77.20° F 1017.12mb 9.93mph S 19.22mph 0 0.000"
359915 4/15/2024 12:45pm 84.15° F --° F 84.15° F 83.89° F 76.12° F 74.00% 76.79° F 1017.10mb 7.72mph S 17.15mph 0 0.000"
359914 4/15/2024 12:40pm 84.49° F --° F 84.49° F 89.96° F 76.89° F 76.88% 78.04° F 1017.12mb 3.86mph S 11.65mph 0 0.000"
359913 4/15/2024 12:35pm 84.58° F --° F 84.58° F 86.84° F 76.53° F 74.01% 77.21° F 1017.17mb 5.95mph S 13.03mph 0 0.000"
359912 4/15/2024 12:30pm 84.47° F --° F 84.47° F 83.69° F 76.23° F 72.88% 76.74° F 1017.10mb 8.25mph S 17.84mph 0 0.000"
359911 4/15/2024 12:24pm 83.64° F --° F 83.64° F 83.32° F 76.31° F 78.32% 77.66° F 1017.10mb 8.48mph S 15.77mph 0 0.000"
359910 4/15/2024 12:19pm 82.00° F --° F 82.00° F 87.33° F 76.82° F 93.95% 80.47° F 1017.25mb 4.97mph S 13.03mph 0 0.000"
359909 4/15/2024 12:14pm 81.30° F --° F 81.30° F 83.64° F 76.45° F 96.56% 80.44° F 1017.37mb 6.85mph S 11.65mph 0 0.000"
359908 4/15/2024 12:09pm 81.34° F --° F 81.34° F 87.01° F 76.34° F 95.43% 80.20° F 1017.49mb 3.56mph S 10.96mph 0 0.000"
359907 4/15/2024 12:04pm 81.43° F --° F 81.43° F 84.09° F 76.22° F 93.74% 79.85° F 1017.52mb 6.16mph S 10.96mph 0 0.000"
359906 4/15/2024 11:59am 81.63° F --° F 81.63° F 85.87° F 77.05° F 98.96% 81.37° F 1017.53mb 6.48mph S 15.08mph 0 0.000"
359905 4/15/2024 11:54am 81.36° F --° F 81.36° F 83.81° F 76.29° F 94.72% 80.03° F 1017.56mb 6.44mph S 11.65mph 0 0.000"
359904 4/15/2024 11:49am 81.81° F --° F 81.81° F 86.29° F 76.48° F 92.63% 79.93° F 1017.64mb 4.99mph S 13.03mph 0 0.000"
359903 4/15/2024 11:44am 82.17° F --° F 82.17° F 87.59° F 76.71° F 91.80% 80.07° F 1017.57mb 4.64mph S 11.65mph 0 0.000"
359902 4/15/2024 11:39am 82.83° F --° F 82.83° F 87.03° F 76.69° F 86.45% 79.26° F 1017.51mb 5.49mph S 12.34mph 0 0.000"
359901 4/15/2024 11:34am 83.53° F --° F 83.53° F 89.53° F 77.41° F 86.70% 80.02° F 1017.70mb 5.24mph S 10.30mph 0 0.000"
359900 4/15/2024 11:29am 82.87° F --° F 82.87° F 90.26° F 77.36° F 91.37% 80.65° F 1017.67mb 4.18mph S 9.61mph 0 0.000"
359899 4/15/2024 11:23am 81.99° F --° F 81.99° F 88.01° F 77.12° F 96.38% 81.08° F 1017.66mb 4.99mph S 9.61mph 0 0.000"
359898 4/15/2024 11:18am 80.96° F --° F 80.96° F 84.10° F 76.38° F 98.91% 80.69° F 1017.63mb 5.84mph S 12.34mph 0 0.000"
359897 4/15/2024 11:13am 81.32° F --° F 81.32° F 85.93° F 76.34° F 95.62% 80.22° F 1017.69mb 4.55mph S 11.65mph 0 0.000"
359896 4/15/2024 11:08am 81.82° F --° F 81.82° F 86.42° F 76.69° F 94.19% 80.35° F 1017.82mb 5.31mph S 13.72mph 0 0.000"
359895 4/15/2024 11:03am 82.56° F --° F 82.56° F 88.50° F 77.10° F 91.74% 80.44° F 1017.76mb 4.97mph S 12.34mph 0 0.000"
359894 4/15/2024 10:58am 83.34° F --° F 83.34° F 88.78° F 77.25° F 86.99% 79.91° F 1017.80mb 5.49mph S 12.34mph 0 0.000"
359893 4/15/2024 10:53am 84.04° F --° F 84.04° F 89.50° F 77.98° F 87.41% 80.71° F 1017.82mb 7.06mph S 21.26mph 0 0.000"
359892 4/15/2024 10:48am 84.42° F --° F 84.42° F 90.33° F 78.62° F 89.35% 81.63° F 1017.67mb 8.28mph S 16.46mph 0 0.000"
359891 4/15/2024 10:43am 84.56° F --° F 84.56° F 97.60° F 79.26° F 93.10% 82.78° F 1017.79mb 3.65mph S 8.92mph 0 0.000"
359890 4/15/2024 10:38am 84.42° F --° F 84.42° F 98.66° F 79.61° F 96.92% 83.64° F 1017.83mb 3.93mph S 7.54mph 0 0.000"
359889 4/15/2024 10:33am 83.70° F --° F 83.70° F 93.58° F 79.26° F 100.00% 83.70° F 1017.84mb 7.29mph S 17.84mph 0 0.000"
359888 4/15/2024 10:27am 82.06° F --° F 82.06° F 87.85° F 77.62° F 100.00% 82.06° F 1017.91mb 6.46mph S 13.72mph 0 0.000"
359887 4/15/2024 10:22am 80.47° F --° F 80.47° F 84.80° F 76.02° F 100.00% 80.47° F 1017.75mb 3.77mph S 8.23mph 0 0.000"
359886 4/15/2024 10:17am 79.47° F --° F 79.47° F 80.07° F 75.00° F 100.00% 79.47° F 1017.95mb 4.94mph S 12.34mph 0 0.000"
359885 4/15/2024 10:12am 79.43° F --° F 79.43° F 80.28° F 74.97° F 100.00% 79.43° F 1017.82mb 4.62mph S 10.30mph 0 0.000"
359884 4/15/2024 10:07am 79.21° F --° F 79.21° F 80.06° F 74.75° F 100.00% 79.21° F 1017.71mb 4.14mph S 8.23mph 0 0.000"
359883 4/15/2024 10:02am 79.47° F --° F 79.47° F 78.52° F 75.00° F 100.00% 79.47° F 1017.80mb 6.39mph S 15.77mph 0 0.000"
359882 4/15/2024 9:57am 78.91° F --° F 78.91° F 77.91° F 74.44° F 100.00% 78.91° F 1017.82mb 5.22mph S 13.03mph 0 0.000"
359881 4/15/2024 9:52am 78.13° F --° F 78.13° F 73.27° F 73.66° F 100.00% 78.13° F 1017.62mb 7.22mph S 15.77mph 0 0.000"
359880 4/15/2024 9:47am 77.63° F --° F 77.63° F 74.05° F 73.16° F 100.00% 77.63° F 1017.60mb 5.06mph S 10.96mph 0 0.000"
359879 4/15/2024 9:42am 77.34° F --° F 77.34° F 72.27° F 72.87° F 100.00% 77.34° F 1017.67mb 5.91mph S 11.65mph 0 0.000"
359878 4/15/2024 9:37am 77.23° F --° F 77.23° F 72.17° F 72.76° F 100.00% 77.23° F 1017.57mb 5.70mph S 10.96mph 0 0.000"
359877 4/15/2024 9:32am 77.20° F --° F 77.20° F 72.44° F 72.72° F 100.00% 77.20° F 1017.54mb 5.36mph S 12.34mph 0 0.000"
359876 4/15/2024 9:26am 77.38° F --° F 77.38° F 71.82° F 72.90° F 100.00% 77.38° F 1017.60mb 6.44mph S 17.84mph 0 0.000"
359875 4/15/2024 9:21am 77.95° F --° F 77.95° F 73.87° F 73.48° F 100.00% 77.95° F 1017.43mb 6.14mph S 12.34mph 0 0.000"
359874 4/15/2024 9:16am 78.46° F --° F 78.46° F 75.15° F 73.99° F 100.00% 78.46° F 1017.50mb 6.44mph S 19.22mph 0 0.000"
359873 4/15/2024 9:11am 77.56° F --° F 77.56° F 74.23° F 73.08° F 100.00% 77.56° F 1017.36mb 4.69mph S 10.30mph 0 0.000"
359872 4/15/2024 9:06am 75.65° F --° F 75.65° F 67.15° F 71.16° F 100.00% 75.65° F 1017.34mb 6.25mph S 14.41mph 0 0.000"
359871 4/15/2024 9:01am 74.21° F --° F 74.21° F 66.94° F 69.71° F 100.00% 74.21° F 1017.27mb 3.08mph S 8.92mph 0 0.000"
359870 4/15/2024 8:56am 73.81° F --° F 73.81° F 73.81° F 69.31° F 100.00% 73.81° F 1017.29mb 3.68mph S 6.85mph 0 0.000"
359869 4/15/2024 8:51am 73.42° F --° F 73.42° F 73.42° F 68.91° F 100.00% 73.42° F 1017.20mb 3.91mph S 9.61mph 0 0.000"
359868 4/15/2024 8:46am 73.17° F --° F 73.17° F 73.17° F 68.66° F 100.00% 73.17° F 1017.18mb 2.99mph S 7.54mph 0 0.000"
359867 4/15/2024 8:41am 72.91° F --° F 72.91° F 72.91° F 68.41° F 100.00% 72.91° F 1017.15mb 5.70mph S 10.30mph 0 0.000"
359866 4/15/2024 8:36am 72.91° F --° F 72.91° F 72.91° F 68.41° F 100.00% 72.91° F 1017.11mb 5.01mph S 8.92mph 0 0.000"
359865 4/15/2024 8:30am 73.06° F --° F 73.06° F 73.06° F 68.55° F 100.00% 73.06° F 1017.08mb 4.99mph S 8.23mph 0 0.000"
359864 4/15/2024 8:25am 73.38° F --° F 73.38° F 73.38° F 68.88° F 100.00% 73.38° F 1017.08mb 3.54mph S 6.85mph 0 0.000"
359863 4/15/2024 8:20am 73.63° F --° F 73.63° F 73.63° F 69.13° F 100.00% 73.63° F 1017.16mb 4.32mph S 7.54mph 0 0.000"
359862 4/15/2024 8:15am 71.91° F --° F 71.91° F 71.91° F 67.39° F 100.00% 71.91° F 1017.14mb 3.06mph S 6.85mph 0 0.000"
359861 4/15/2024 8:10am 69.31° F --° F 69.31° F 69.31° F 64.78° F 100.00% 69.31° F 1017.41mb 3.54mph S 6.85mph 0 0.000"
359860 4/15/2024 8:05am 67.68° F --° F 67.68° F 67.68° F 63.13° F 100.00% 67.68° F 1017.38mb 2.57mph S 4.80mph 0 0.000"
359859 4/15/2024 8:00am 67.26° F --° F 67.26° F 67.26° F 62.71° F 100.00% 67.26° F 1017.30mb 2.48mph S 4.80mph 0 0.000"
359858 4/15/2024 7:55am 66.88° F --° F 66.88° F 66.88° F 62.33° F 100.00% 66.88° F 1017.37mb 3.68mph S 5.49mph 0 0.000"
359857 4/15/2024 7:50am 66.51° F --° F 66.51° F 66.51° F 61.95° F 100.00% 66.51° F 1017.38mb 1.84mph S 4.11mph 0 0.000"
359856 4/15/2024 7:45am 66.18° F --° F 66.18° F 66.18° F 61.63° F 100.00% 66.18° F 1017.39mb 2.69mph N 6.85mph 0 0.000"
359855 4/15/2024 7:40am 65.88° F --° F 65.88° F 65.88° F 61.32° F 100.00% 65.88° F 1017.27mb 2.74mph S 8.23mph 0 0.000"
359854 4/15/2024 7:35am 65.61° F --° F 65.61° F 65.61° F 61.05° F 100.00% 65.61° F 1017.35mb 0.00mph -- 0.69mph 0 0.000"
359853 4/15/2024 7:30am 65.41° F --° F 65.41° F 65.41° F 60.85° F 100.00% 65.41° F 1017.23mb 0.00mph -- 0.00mph 0 0.000"
359852 4/15/2024 7:25am 65.23° F --° F 65.23° F 65.23° F 60.67° F 100.00% 65.23° F 1017.09mb 0.51mph N 2.74mph 0 0.000"
359851 4/15/2024 7:19am 65.14° F --° F 65.14° F 65.14° F 60.58° F 100.00% 65.14° F 1017.09mb 0.00mph -- 0.00mph 0 0.000"
359850 4/15/2024 7:14am 65.05° F --° F 65.05° F 65.05° F 60.48° F 100.00% 65.05° F 1016.85mb 0.00mph -- 0.00mph 0 0.000"
359849 4/15/2024 7:09am 64.99° F --° F 64.99° F 64.99° F 60.43° F 100.00% 64.99° F 1016.82mb 0.02mph N 0.69mph 0 0.000"
359848 4/15/2024 7:04am 64.92° F --° F 64.92° F 64.92° F 60.36° F 100.00% 64.92° F 1016.70mb 1.20mph N 4.11mph 0 0.000"
359847 4/15/2024 6:59am 64.85° F --° F 64.85° F 64.85° F 60.29° F 100.00% 64.85° F 1016.66mb 0.00mph -- 0.00mph 0 0.000"
359846 4/15/2024 6:54am 64.83° F --° F 64.83° F 64.83° F 60.27° F 100.00% 64.83° F 1016.59mb 1.79mph N 4.80mph 0 0.000"
359845 4/15/2024 6:49am 64.81° F --° F 64.81° F 64.81° F 60.25° F 100.00% 64.81° F 1016.57mb 0.00mph -- 0.00mph 0 0.000"
359844 4/15/2024 6:44am 64.80° F --° F 64.80° F 64.80° F 60.23° F 100.00% 64.80° F 1016.66mb 0.00mph -- 0.00mph 0 0.000"
359843 4/15/2024 6:39am 64.83° F --° F 64.83° F 64.83° F 60.27° F 100.00% 64.83° F 1016.56mb 0.00mph -- 0.00mph 0 0.000"
359842 4/15/2024 6:34am 64.89° F --° F 64.89° F 64.89° F 60.32° F 100.00% 64.89° F 1016.50mb 0.00mph -- 0.00mph 0 0.000"
359841 4/15/2024 6:29am 64.94° F --° F 64.94° F 64.94° F 60.38° F 100.00% 64.94° F 1016.36mb 0.00mph -- 0.00mph 0 0.000"
359840 4/15/2024 6:24am 64.96° F --° F 64.96° F 64.96° F 60.39° F 100.00% 64.96° F 1016.33mb 0.00mph -- 0.00mph 0 0.000"
359839 4/15/2024 6:19am 64.99° F --° F 64.99° F 64.99° F 60.43° F 100.00% 64.99° F 1016.22mb 0.00mph -- 0.69mph 0 0.000"
359838 4/15/2024 6:14am 65.05° F --° F 65.05° F 65.05° F 60.48° F 100.00% 65.05° F 1016.14mb 0.21mph N 2.74mph 0 0.000"
359837 4/15/2024 6:09am 65.12° F --° F 65.12° F 65.12° F 60.56° F 100.00% 65.12° F 1016.15mb 0.00mph -- 0.00mph 0 0.000"
359836 4/15/2024 6:04am 65.19° F --° F 65.19° F 65.19° F 60.63° F 100.00% 65.19° F 1016.19mb 0.00mph -- 0.00mph 0 0.000"
359835 4/15/2024 5:59am 65.28° F --° F 65.28° F 65.28° F 60.72° F 100.00% 65.28° F 1016.14mb 0.00mph -- 0.00mph 0 0.000"
359834 4/15/2024 5:54am 65.35° F --° F 65.35° F 65.35° F 60.79° F 100.00% 65.35° F 1016.10mb 0.00mph -- 0.00mph 0 0.000"
359833 4/15/2024 5:49am 65.44° F --° F 65.44° F 65.44° F 60.88° F 100.00% 65.44° F 1016.00mb 0.00mph -- 0.00mph 0 0.000"
359832 4/15/2024 5:44am 65.52° F --° F 65.52° F 65.52° F 60.96° F 100.00% 65.52° F 1015.85mb 0.00mph -- 0.00mph 0 0.000"
359831 4/15/2024 5:39am 65.55° F --° F 65.55° F 65.55° F 60.99° F 100.00% 65.55° F 1015.87mb 0.00mph -- 0.00mph 0 0.000"
359830 4/15/2024 5:33am 65.59° F --° F 65.59° F 65.59° F 61.03° F 100.00% 65.59° F 1015.87mb 0.00mph -- 0.00mph 0 0.000"
359829 4/15/2024 5:28am 65.64° F --° F 65.64° F 65.64° F 61.08° F 100.00% 65.64° F 1015.87mb 0.00mph -- 0.00mph 0 0.000"
359828 4/15/2024 5:23am 65.68° F --° F 65.68° F 65.68° F 61.12° F 100.00% 65.68° F 1015.69mb 0.44mph N 4.11mph 0 0.000"
359827 4/15/2024 5:18am 65.70° F --° F 65.70° F 65.70° F 61.14° F 100.00% 65.70° F 1015.65mb 0.53mph N 3.43mph 0 0.000"
359826 4/15/2024 5:13am 65.71° F --° F 65.71° F 65.71° F 61.16° F 100.00% 65.71° F 1015.72mb 0.00mph -- 0.00mph 0 0.000"
359825 4/15/2024 5:08am 65.75° F --° F 65.75° F 65.75° F 61.19° F 100.00% 65.75° F 1015.75mb 0.00mph -- 0.69mph 0 0.000"
359824 4/15/2024 5:03am 65.73° F --° F 65.73° F 65.73° F 61.17° F 100.00% 65.73° F 1015.68mb 0.00mph -- 0.00mph 0 0.000"
359823 4/15/2024 4:58am 65.77° F --° F 65.77° F 65.77° F 61.21° F 100.00% 65.77° F 1015.67mb 0.00mph -- 0.00mph 0 0.000"
359822 4/15/2024 4:53am 65.80° F --° F 65.80° F 65.80° F 61.25° F 100.00% 65.80° F 1015.52mb 1.84mph S 4.11mph 0 0.000"
359821 4/15/2024 4:48am 65.77° F --° F 65.77° F 65.77° F 61.21° F 100.00% 65.77° F 1015.41mb 2.30mph S 6.18mph 0 0.000"
359820 4/15/2024 4:43am 65.77° F --° F 65.77° F 65.77° F 61.21° F 100.00% 65.77° F 1015.57mb 2.80mph S 5.49mph 0 0.000"
359819 4/15/2024 4:38am 65.71° F --° F 65.71° F 65.71° F 61.16° F 100.00% 65.71° F 1015.47mb 2.71mph S 6.18mph 0 0.000"
359818 4/15/2024 4:33am 65.64° F --° F 65.64° F 65.64° F 61.08° F 100.00% 65.64° F 1015.38mb 3.33mph S 5.49mph 0 0.000"
359817 4/15/2024 4:28am 65.61° F --° F 65.61° F 65.61° F 61.05° F 100.00% 65.61° F 1015.29mb 2.74mph S 7.54mph 0 0.000"
359816 4/15/2024 4:23am 65.53° F --° F 65.53° F 65.53° F 60.97° F 100.00% 65.53° F 1015.36mb 3.56mph S 6.85mph 0 0.000"
359815 4/15/2024 4:18am 65.50° F --° F 65.50° F 65.50° F 60.94° F 100.00% 65.50° F 1015.40mb 1.93mph S 4.80mph 0 0.000"
359814 4/15/2024 4:12am 65.44° F --° F 65.44° F 65.44° F 60.88° F 100.00% 65.44° F 1015.43mb 3.24mph S 5.49mph 0 0.000"
359813 4/15/2024 4:07am 65.39° F --° F 65.39° F 65.39° F 60.83° F 100.00% 65.39° F 1015.35mb 2.80mph S 5.49mph 0 0.000"
359812 4/15/2024 4:02am 65.32° F --° F 65.32° F 65.32° F 60.76° F 100.00% 65.32° F 1015.35mb 0.97mph N 3.43mph 0 0.000"
359811 4/15/2024 3:57am 65.26° F --° F 65.26° F 65.26° F 60.70° F 100.00% 65.26° F 1015.46mb 1.24mph S 3.43mph 0 0.000"
359810 4/15/2024 3:52am 65.17° F --° F 65.17° F 65.17° F 60.61° F 100.00% 65.17° F 1015.33mb 0.21mph S 2.74mph 0 0.000"
359809 4/15/2024 3:47am 65.16° F --° F 65.16° F 65.16° F 60.59° F 100.00% 65.16° F 1015.53mb 0.00mph -- 0.00mph 0 0.000"
359808 4/15/2024 3:42am 65.16° F --° F 65.16° F 65.16° F 60.59° F 100.00% 65.16° F 1015.53mb 0.00mph -- 0.00mph 0 0.000"
359807 4/15/2024 3:37am 65.23° F --° F 65.23° F 65.23° F 60.67° F 100.00% 65.23° F 1015.55mb 0.00mph -- 0.00mph 0 0.000"
359806 4/15/2024 3:32am 65.28° F --° F 65.28° F 65.28° F 60.72° F 100.00% 65.28° F 1015.37mb 0.00mph -- 0.00mph 0 0.000"
359805 4/15/2024 3:27am 65.30° F --° F 65.30° F 65.30° F 60.74° F 100.00% 65.30° F 1015.40mb 0.00mph -- 0.00mph 0 0.000"
359804 4/15/2024 3:22am 65.37° F --° F 65.37° F 65.37° F 60.81° F 100.00% 65.37° F 1015.51mb 0.00mph -- 0.00mph 0 0.000"
359803 4/15/2024 3:17am 65.46° F --° F 65.46° F 65.46° F 60.90° F 100.00% 65.46° F 1015.48mb 0.00mph -- 0.00mph 0 0.000"
359802 4/15/2024 3:12am 65.53° F --° F 65.53° F 65.53° F 60.97° F 100.00% 65.53° F 1015.60mb 0.00mph -- 0.00mph 0 0.000"
359801 4/15/2024 3:07am 65.57° F --° F 65.57° F 65.57° F 61.01° F 100.00% 65.57° F 1015.59mb 0.00mph -- 0.00mph 0 0.000"
359800 4/15/2024 3:02am 65.64° F --° F 65.64° F 65.64° F 61.08° F 100.00% 65.64° F 1015.65mb 0.00mph -- 0.00mph 0 0.000"
359799 4/15/2024 2:57am 65.71° F --° F 65.71° F 65.71° F 61.16° F 100.00% 65.71° F 1015.66mb 0.00mph -- 0.00mph 0 0.000"
359798 4/15/2024 2:52am 65.80° F --° F 65.80° F 65.80° F 61.25° F 100.00% 65.80° F 1015.80mb 0.00mph -- 0.00mph 0 0.000"
359797 4/15/2024 2:47am 65.91° F --° F 65.91° F 65.91° F 61.36° F 100.00% 65.91° F 1015.78mb 0.00mph -- 0.00mph 0 0.000"
359796 4/15/2024 2:41am 66.02° F --° F 66.02° F 66.02° F 61.46° F 100.00% 66.02° F 1015.78mb 0.00mph -- 0.00mph 0 0.000"
359795 4/15/2024 2:36am 66.09° F --° F 66.09° F 66.09° F 61.54° F 100.00% 66.09° F 1015.88mb 0.00mph -- 0.00mph 0 0.000"
359794 4/15/2024 2:31am 66.20° F --° F 66.20° F 66.20° F 61.65° F 100.00% 66.20° F 1015.99mb 0.00mph -- 0.00mph 0 0.000"
359793 4/15/2024 2:26am 66.33° F --° F 66.33° F 66.33° F 61.77° F 100.00% 66.33° F 1016.10mb 0.00mph -- 0.00mph 0 0.000"
359792 4/15/2024 2:21am 66.45° F --° F 66.45° F 66.45° F 61.90° F 100.00% 66.45° F 1016.06mb 0.00mph -- 0.00mph 0 0.000"
359791 4/15/2024 2:16am 66.56° F --° F 66.56° F 66.56° F 62.01° F 100.00% 66.56° F 1016.15mb 0.00mph -- 0.00mph 0 0.000"
359790 4/15/2024 2:11am 66.67° F --° F 66.67° F 66.67° F 62.12° F 100.00% 66.67° F 1016.15mb 0.00mph -- 0.00mph 0 0.000"
359789 4/15/2024 2:06am 66.79° F --° F 66.79° F 66.79° F 62.24° F 100.00% 66.79° F 1016.28mb 0.00mph -- 0.00mph 0 0.000"
359788 4/15/2024 2:01am 66.90° F --° F 66.90° F 66.90° F 62.35° F 100.00% 66.90° F 1016.36mb 0.00mph -- 0.00mph 0 0.000"
359787 4/15/2024 1:56am 67.03° F --° F 67.03° F 67.03° F 62.48° F 100.00% 67.03° F 1016.58mb 0.00mph -- 0.00mph 0 0.000"
359786 4/15/2024 1:51am 67.12° F --° F 67.12° F 67.12° F 62.57° F 100.00% 67.12° F 1016.63mb 0.00mph -- 0.00mph 0 0.000"
359785 4/15/2024 1:46am 67.24° F --° F 67.24° F 67.24° F 62.70° F 100.00% 67.24° F 1016.72mb 0.00mph -- 0.00mph 0 0.000"
359784 4/15/2024 1:41am 67.44° F --° F 67.44° F 67.44° F 62.90° F 100.00% 67.44° F 1016.73mb 0.00mph -- 0.00mph 0 0.000"
359783 4/15/2024 1:36am 67.62° F --° F 67.62° F 67.62° F 63.08° F 100.00% 67.62° F 1016.73mb 0.00mph -- 0.00mph 0 0.000"
359782 4/15/2024 1:31am 67.77° F --° F 67.77° F 67.77° F 63.22° F 100.00% 67.77° F 1016.76mb 0.00mph -- 0.00mph 0 0.000"
359781 4/15/2024 1:26am 67.86° F --° F 67.86° F 67.86° F 63.31° F 100.00% 67.86° F 1016.73mb 0.00mph -- 0.00mph 0 0.000"
359780 4/15/2024 1:21am 68.00° F --° F 68.00° F 68.00° F 63.46° F 100.00% 68.00° F 1016.84mb 0.00mph -- 0.00mph 0 0.000"
359779 4/15/2024 1:16am 68.07° F --° F 68.07° F 68.07° F 63.53° F 100.00% 68.07° F 1016.85mb 0.00mph -- 0.69mph 0 0.000"
359778 4/15/2024 1:11am 68.22° F --° F 68.22° F 68.22° F 63.68° F 100.00% 68.22° F 1017.00mb 0.28mph N 3.43mph 0 0.000"
359777 4/15/2024 1:06am 68.31° F --° F 68.31° F 68.31° F 63.77° F 100.00% 68.31° F 1017.03mb 0.00mph -- 0.69mph 0 0.000"
359776 4/15/2024 1:01am 68.38° F --° F 68.38° F 68.38° F 63.84° F 100.00% 68.38° F 1017.15mb 0.14mph N 1.38mph 0 0.000"
359775 4/15/2024 12:56am 68.43° F --° F 68.43° F 68.43° F 63.89° F 100.00% 68.43° F 1017.17mb 0.80mph N 3.43mph 0 0.000"
359774 4/15/2024 12:50am 68.54° F --° F 68.54° F 68.54° F 64.00° F 100.00% 68.54° F 1017.18mb 0.90mph N 3.43mph 0 0.000"
359773 4/15/2024 12:45am 68.59° F --° F 68.59° F 68.59° F 64.06° F 100.00% 68.59° F 1017.35mb 0.02mph N 0.69mph 0 0.000"
359772 4/15/2024 12:40am 68.72° F --° F 68.72° F 68.72° F 64.18° F 100.00% 68.72° F 1017.35mb 0.00mph -- 0.69mph 0 0.000"
359771 4/15/2024 12:35am 68.86° F --° F 68.86° F 68.86° F 64.33° F 100.00% 68.86° F 1017.37mb 0.00mph -- 0.00mph 0 0.000"
359770 4/15/2024 12:30am 68.97° F --° F 68.97° F 68.97° F 64.44° F 100.00% 68.97° F 1017.52mb 0.00mph -- 0.00mph 0 0.000"
359769 4/15/2024 12:25am 69.10° F --° F 69.10° F 69.10° F 64.56° F 100.00% 69.10° F 1017.53mb 0.00mph -- 0.00mph 0 0.000"
359768 4/15/2024 12:20am 69.26° F --° F 69.26° F 69.26° F 64.73° F 100.00% 69.26° F 1017.68mb 0.00mph -- 0.69mph 0 0.000"
359767 4/15/2024 12:15am 69.42° F --° F 69.42° F 69.42° F 64.89° F 100.00% 69.42° F 1017.72mb 0.00mph -- 0.69mph 0 0.000"
359766 4/15/2024 12:10am 69.57° F --° F 69.57° F 69.57° F 65.03° F 100.00% 69.57° F 1017.69mb 0.00mph -- 0.00mph 0 0.000"
359765 4/15/2024 12:05am 69.73° F --° F 69.73° F 69.73° F 65.20° F 100.00% 69.73° F 1017.67mb 0.00mph -- 0.00mph 0 0.000"
359764 4/15/2024 12:00am 69.91° F --° F 69.91° F 69.91° F 65.38° F 100.00% 69.91° F 1017.62mb 0.00mph -- 0.00mph 0 0.000"
359763 4/14/2024 11:55pm 70.14° F --° F 70.14° F 70.14° F 65.62° F 100.00% 70.14° F 1017.68mb 0.32mph N 2.07mph 0 0.000"
359762 4/14/2024 11:50pm 70.34° F --° F 70.34° F 70.34° F 65.81° F 100.00% 70.34° F 1017.70mb 0.60mph N 5.49mph 0 0.000"
359761 4/14/2024 11:45pm 70.61° F --° F 70.61° F 70.61° F 66.09° F 100.00% 70.61° F 1017.71mb 2.21mph N 4.80mph 0 0.000"
359760 4/14/2024 11:40pm 70.93° F --° F 70.93° F 70.93° F 66.41° F 100.00% 70.93° F 1017.75mb 1.88mph N 4.11mph 0 0.000"
359759 4/14/2024 11:35pm 71.28° F --° F 71.28° F 71.28° F 66.76° F 100.00% 71.28° F 1017.74mb 3.20mph N 4.80mph 0 0.000"
359758 4/14/2024 11:30pm 71.80° F --° F 71.80° F 71.80° F 67.28° F 100.00% 71.80° F 1017.85mb 3.77mph S 6.85mph 0 0.000"
359757 4/14/2024 11:24pm 72.39° F --° F 72.39° F 72.39° F 67.88° F 100.00% 72.39° F 1017.85mb 2.41mph N 4.11mph 0 0.000"
359756 4/14/2024 11:19pm 73.08° F --° F 73.08° F 73.08° F 68.57° F 100.00% 73.08° F 1017.81mb 3.61mph S 6.18mph 0 0.000"
359755 4/14/2024 11:14pm 72.95° F --° F 72.95° F 72.95° F 68.44° F 100.00% 72.95° F 1017.96mb 3.98mph S 6.85mph 0 0.000"
359754 4/14/2024 11:09pm 72.03° F --° F 72.03° F 72.03° F 67.52° F 100.00% 72.03° F 1017.95mb 2.97mph N 4.80mph 0 0.000"
359753 4/14/2024 11:04pm 70.75° F --° F 70.75° F 70.75° F 66.23° F 100.00% 70.75° F 1017.94mb 2.71mph S 4.11mph 0 0.000"
359752 4/14/2024 10:59pm 70.88° F --° F 70.88° F 70.88° F 66.36° F 100.00% 70.88° F 1018.08mb 2.76mph N 4.11mph 0 0.000"
359751 4/14/2024 10:54pm 71.04° F --° F 71.04° F 71.04° F 66.52° F 100.00% 71.04° F 1018.04mb 2.05mph N 4.80mph 0 0.000"
359750 4/14/2024 10:49pm 71.29° F --° F 71.29° F 71.29° F 66.78° F 100.00% 71.29° F 1017.99mb 3.75mph S 7.54mph 0 0.000"
359749 4/14/2024 10:44pm 71.53° F --° F 71.53° F 71.53° F 67.01° F 100.00% 71.53° F 1017.98mb 3.29mph S 5.49mph 0 0.000"
359748 4/14/2024 10:39pm 71.78° F --° F 71.78° F 71.78° F 67.26° F 100.00% 71.78° F 1017.95mb 2.05mph N 5.49mph 0 0.000"
359747 4/14/2024 10:34pm 72.03° F --° F 72.03° F 72.03° F 67.52° F 100.00% 72.03° F 1018.02mb 3.15mph N 6.18mph 0 0.000"
359746 4/14/2024 10:29pm 72.41° F --° F 72.41° F 72.41° F 67.90° F 100.00% 72.41° F 1017.91mb 2.60mph S 5.49mph 0 0.000"
359745 4/14/2024 10:24pm 72.77° F --° F 72.77° F 72.77° F 68.26° F 100.00% 72.77° F 1017.91mb 2.64mph S 5.49mph 0 0.000"
359744 4/14/2024 10:19pm 73.24° F --° F 73.24° F 73.24° F 68.73° F 100.00% 73.24° F 1018.01mb 3.15mph S 6.18mph 0 0.000"
359743 4/14/2024 10:14pm 73.83° F --° F 73.83° F 73.83° F 69.33° F 100.00% 73.83° F 1017.92mb 4.23mph S 8.92mph 0 0.000"
359742 4/14/2024 10:08pm 74.57° F --° F 74.57° F 67.01° F 70.07° F 100.00% 74.57° F 1017.99mb 3.82mph S 7.54mph 0 0.000"
359741 4/14/2024 10:03pm 75.00° F --° F 75.00° F 68.33° F 70.51° F 100.00% 75.00° F 1017.91mb 3.59mph S 6.18mph 0 0.000"
359740 4/14/2024 9:58pm 74.41° F --° F 74.41° F 64.86° F 69.91° F 100.00% 74.41° F 1017.97mb 5.47mph S 9.61mph 0 0.000"
359739 4/14/2024 9:53pm 73.04° F --° F 73.04° F 73.04° F 68.53° F 100.00% 73.04° F 1017.88mb 5.38mph S 11.65mph 0 0.000"
359738 4/14/2024 9:48pm 72.34° F --° F 72.34° F 72.34° F 67.83° F 100.00% 72.34° F 1017.90mb 3.84mph S 8.23mph 0 0.000"
359737 4/14/2024 9:43pm 72.52° F --° F 72.52° F 72.52° F 68.01° F 100.00% 72.52° F 1017.84mb 4.67mph S 8.92mph 0 0.000"
359736 4/14/2024 9:38pm 72.66° F --° F 72.66° F 72.66° F 68.15° F 100.00% 72.66° F 1017.82mb 4.99mph S 8.92mph 0 0.000"
359735 4/14/2024 9:33pm 72.84° F --° F 72.84° F 72.84° F 68.33° F 100.00% 72.84° F 1017.67mb 4.09mph S 8.23mph 0 0.000"
359734 4/14/2024 9:28pm 73.04° F --° F 73.04° F 73.04° F 68.53° F 100.00% 73.04° F 1017.80mb 6.39mph S 13.03mph 0 0.000"
359733 4/14/2024 9:23pm 73.44° F --° F 73.44° F 73.44° F 68.93° F 100.00% 73.44° F 1017.81mb 4.69mph S 8.92mph 0 0.000"
359732 4/14/2024 9:18pm 73.78° F --° F 73.78° F 73.78° F 69.28° F 100.00% 73.78° F 1017.62mb 5.33mph S 9.61mph 0 0.000"
359731 4/14/2024 9:13pm 74.26° F --° F 74.26° F 64.15° F 69.77° F 100.00% 74.26° F 1017.68mb 5.79mph S 10.96mph 0 0.000"
359730 4/14/2024 9:07pm 74.84° F --° F 74.84° F 65.98° F 70.35° F 100.00% 74.84° F 1017.70mb 5.40mph S 15.77mph 0 0.000"
359729 4/14/2024 9:02pm 75.67° F --° F 75.67° F 68.19° F 71.18° F 100.00% 75.67° F 1017.69mb 5.33mph S 12.34mph 0 0.000"
359728 4/14/2024 8:57pm 76.55° F --° F 76.55° F 70.12° F 72.03° F 99.83% 76.51° F 1017.64mb 5.79mph S 16.46mph 0 0.000"
359727 4/14/2024 8:52pm 76.42° F --° F 76.42° F 69.32° F 71.94° F 100.00% 76.42° F 1017.58mb 6.18mph S 12.34mph 0 0.000"
359726 4/14/2024 8:47pm 75.63° F --° F 75.63° F 66.85° F 71.14° F 100.00% 75.63° F 1017.55mb 6.48mph S 14.41mph 0 0.000"
359725 4/14/2024 8:42pm 74.35° F --° F 74.35° F 63.53° F 69.86° F 100.00% 74.35° F 1017.49mb 6.57mph S 13.03mph 0 0.000"
359724 4/14/2024 8:37pm 74.70° F --° F 74.70° F 63.76° F 70.20° F 100.00% 74.70° F 1017.37mb 7.15mph S 16.46mph 0 0.000"
359723 4/14/2024 8:32pm 75.18° F --° F 75.18° F 65.59° F 70.69° F 100.00% 75.18° F 1017.35mb 6.57mph S 13.03mph 0 0.000"
359722 4/14/2024 8:27pm 75.85° F --° F 75.85° F 67.77° F 70.98° F 96.32% 74.96° F 1017.25mb 6.67mph S 12.34mph 0 0.000"
359721 4/14/2024 8:22pm 76.62° F --° F 76.62° F 70.06° F 71.24° F 91.92% 74.62° F 1017.29mb 6.67mph S 10.30mph 0 0.000"
359720 4/14/2024 8:16pm 77.59° F --° F 77.59° F 74.00° F 71.85° F 88.73% 74.75° F 1017.23mb 5.17mph S 13.03mph 0 0.000"
359719 4/14/2024 8:11pm 77.97° F --° F 77.97° F 75.05° F 72.40° F 90.19% 75.51° F 1017.36mb 5.01mph S 10.30mph 0 0.000"
359718 4/14/2024 8:06pm 77.50° F --° F 77.50° F 71.74° F 72.29° F 93.40% 75.87° F 1017.45mb 7.01mph S 17.84mph 0 0.000"
359717 4/14/2024 8:01pm 76.48° F --° F 76.48° F 70.98° F 71.91° F 99.41% 76.34° F 1017.44mb 4.85mph S 8.23mph 0 0.000"
359716 4/14/2024 7:56pm 75.90° F --° F 75.90° F 70.49° F 71.00° F 96.07% 74.95° F 1017.44mb 4.28mph S 6.18mph 0 0.000"
359715 4/14/2024 7:51pm 76.24° F --° F 76.24° F 70.16° F 70.96° F 92.53% 74.40° F 1017.49mb 5.72mph S 10.30mph 0 0.000"
359714 4/14/2024 7:46pm 76.82° F --° F 76.82° F 72.79° F 70.72° F 85.83% 73.21° F 1017.47mb 4.87mph S 10.96mph 0 0.000"
359713 4/14/2024 7:41pm 77.47° F --° F 77.47° F 71.32° F 70.93° F 82.25% 72.85° F 1017.46mb 7.49mph S 15.08mph 0 0.000"
359712 4/14/2024 7:36pm 78.40° F --° F 78.40° F 73.67° F 71.03° F 76.32% 72.01° F 1017.45mb 6.71mph S 13.03mph 0 0.000"
359711 4/14/2024 7:31pm 79.45° F --° F 79.45° F 75.32° F 71.44° F 72.40% 71.79° F 1017.44mb 6.53mph S 16.46mph 0 0.000"
359710 4/14/2024 7:25pm 79.70° F --° F 79.70° F 77.42° F 71.57° F 71.78% 71.83° F 1017.32mb 4.90mph S 10.96mph 0 0.000"
359709 4/14/2024 7:20pm 79.23° F --° F 79.23° F 76.56° F 70.91° F 70.25% 70.89° F 1017.35mb 4.87mph S 13.72mph 0 0.000"
359708 4/14/2024 7:15pm 78.64° F --° F 78.64° F 73.78° F 69.93° F 67.59% 69.45° F 1017.47mb 6.51mph S 13.03mph 0 0.000"
359707 4/14/2024 7:10pm 79.21° F --° F 79.21° F 75.62° F 69.59° F 62.25% 68.11° F 1017.44mb 5.10mph S 10.96mph 0 0.000"
359706 4/14/2024 7:05pm 79.86° F --° F 79.86° F 75.41° F 69.32° F 57.61% 66.97° F 1017.42mb 5.59mph S 10.96mph 0 0.000"
359705 4/14/2024 7:00pm 80.31° F --° F 80.31° F 75.30° F 69.11° F 54.36% 66.09° F 1017.50mb 5.82mph S 13.72mph 0 0.000"
359704 4/14/2024 6:55pm 80.89° F --° F 80.89° F 75.01° F 69.07° F 51.80% 65.54° F 1017.40mb 6.37mph S 12.34mph 0 0.000"
359703 4/14/2024 6:50pm 81.73° F --° F 81.73° F 77.38° F 69.30° F 49.51% 65.30° F 1017.45mb 4.69mph S 10.30mph 0 0.000"
359702 4/14/2024 6:45pm 82.13° F --° F 82.13° F 76.14° F 69.49° F 48.77% 65.32° F 1017.49mb 6.14mph S 11.65mph 0 0.000"
359701 4/14/2024 6:40pm 81.99° F --° F 81.99° F 75.28° F 69.19° F 48.01% 64.85° F 1017.57mb 6.71mph S 13.72mph 0 0.000"
359700 4/14/2024 6:34pm 81.48° F --° F 81.48° F 75.17° F 68.59° F 47.29% 64.06° F 1017.62mb 6.25mph S 13.03mph 0 0.000"
359699 4/14/2024 6:29pm 81.36° F --° F 81.36° F 75.51° F 68.17° F 45.98% 63.33° F 1017.75mb 5.68mph S 12.34mph 0 0.000"
359698 4/14/2024 6:24pm 81.75° F --° F 81.75° F 74.95° F 68.17° F 44.53% 62.98° F 1017.80mb 6.37mph S 13.72mph 0 0.000"
359697 4/14/2024 6:19pm 82.22° F --° F 82.22° F 75.15° F 68.16° F 42.94% 62.60° F 1017.72mb 6.39mph S 12.34mph 0 0.000"
359696 4/14/2024 6:14pm 82.87° F --° F 82.87° F 75.97° F 68.42° F 41.92% 62.65° F 1017.70mb 6.07mph S 13.03mph 0 0.000"
359695 4/14/2024 6:09pm 83.43° F --° F 83.43° F 74.67° F 68.82° F 41.67% 63.01° F 1017.77mb 7.75mph S 15.77mph 0 0.000"
359694 4/14/2024 6:04pm 83.26° F --° F 83.26° F 72.97° F 68.52° F 41.03% 62.52° F 1017.76mb 9.10mph S 15.08mph 0 0.000"
359693 4/14/2024 5:59pm 82.69° F --° F 82.69° F 73.94° F 68.04° F 40.97% 61.99° F 1017.96mb 7.68mph S 13.03mph 0 0.000"
359692 4/14/2024 5:54pm 82.69° F --° F 82.69° F 71.80° F 67.59° F 39.36% 61.12° F 1018.04mb 9.49mph S 16.46mph 0 0.000"
359691 4/14/2024 5:49pm 83.10° F --° F 83.10° F 72.03° F 67.72° F 38.59% 61.05° F 1018.09mb 9.52mph S 19.22mph 0 0.000"
359690 4/14/2024 5:43pm 83.97° F --° F 83.97° F 72.80° F 67.91° F 36.86% 60.82° F 1018.14mb 9.33mph S 28.11mph 0 0.000"
359689 4/14/2024 5:38pm 84.34° F --° F 84.34° F 73.18° F 68.62° F 38.23% 61.93° F 1017.99mb 9.49mph S 16.46mph 0 0.000"
359688 4/14/2024 5:33pm 84.04° F --° F 84.04° F 73.07° F 68.00° F 36.95% 60.93° F 1018.07mb 9.15mph S 18.53mph 0 0.000"
359687 4/14/2024 5:28pm 83.57° F --° F 83.57° F 71.30° F 67.89° F 37.89% 61.07° F 1018.00mb 10.51mph S 19.22mph 0 0.000"
359686 4/14/2024 5:23pm 83.55° F --° F 83.55° F 70.23° F 67.56° F 36.79% 60.42° F 1017.98mb 11.36mph S 23.33mph 0 0.000"
359685 4/14/2024 5:18pm 84.31° F --° F 84.31° F 70.90° F 68.15° F 36.72% 61.03° F 1017.75mb 11.38mph S 21.26mph 0 0.000"
359684 4/14/2024 5:13pm 85.39° F --° F 85.39° F 75.62° F 69.32° F 37.79% 62.59° F 1017.82mb 8.14mph S 19.22mph 0 0.000"
359683 4/14/2024 5:08pm 86.43° F --° F 86.43° F 76.71° F 70.36° F 38.42% 63.85° F 1017.82mb 8.30mph S 19.22mph 0 0.000"
359682 4/14/2024 5:03pm 86.47° F --° F 86.47° F 77.42° F 70.58° F 39.11% 64.28° F 1017.77mb 7.82mph S 18.53mph 0 0.000"
359681 4/14/2024 4:58pm 85.78° F --° F 85.78° F 76.66° F 70.40° F 40.35% 64.36° F 1017.87mb 8.02mph S 14.41mph 0 0.000"
359680 4/14/2024 4:53pm 85.05° F --° F 85.05° F 75.19° F 69.78° F 40.28% 63.69° F 1018.01mb 8.62mph S 15.77mph 0 0.000"
359679 4/14/2024 4:48pm 85.57° F --° F 85.57° F 75.21° F 69.82° F 38.96% 63.41° F 1017.90mb 8.90mph S 13.72mph 0 0.000"
359678 4/14/2024 4:42pm 86.22° F --° F 86.22° F 77.18° F 70.51° F 39.56% 64.31° F 1017.90mb 7.86mph S 17.15mph 0 0.000"
359677 4/14/2024 4:37pm 86.72° F --° F 86.72° F 79.84° F 70.73° F 38.91% 64.38° F 1017.92mb 5.79mph S 10.30mph 0 0.000"
359676 4/14/2024 4:32pm 87.03° F --° F 87.03° F 77.01° F 70.58° F 37.62% 63.91° F 1017.74mb 8.51mph S 15.08mph 0 0.000"
359675 4/14/2024 4:27pm 86.59° F --° F 86.59° F 75.16° F 70.24° F 37.66% 63.55° F 1017.91mb 9.77mph S 19.88mph 0 0.000"
359674 4/14/2024 4:22pm 85.39° F --° F 85.39° F 74.50° F 69.84° F 39.58% 63.60° F 1018.02mb 9.49mph S 20.57mph 0 0.000"
359673 4/14/2024 4:17pm 85.24° F --° F 85.24° F 76.52° F 69.67° F 39.39% 63.36° F 1018.02mb 7.42mph S 16.46mph 0 0.000"
359672 4/14/2024 4:12pm 85.26° F --° F 85.26° F 75.01° F 69.54° F 38.87% 63.09° F 1018.04mb 8.76mph S 21.26mph 0 0.000"
359671 4/14/2024 4:07pm 85.78° F --° F 85.78° F 73.93° F 69.97° F 38.90% 63.56° F 1018.06mb 10.30mph S 18.53mph 0 0.000"
359670 4/14/2024 4:02pm 86.74° F --° F 86.74° F 74.07° F 70.31° F 37.50% 63.59° F 1018.15mb 10.92mph S 21.26mph 0 0.000"
359669 4/14/2024 3:57pm 87.01° F --° F 87.01° F 75.68° F 70.60° F 37.73% 63.95° F 1018.28mb 9.75mph S 22.64mph 0 0.000"
359668 4/14/2024 3:52pm 86.54° F --° F 86.54° F 75.61° F 70.92° F 40.03% 64.85° F 1018.41mb 9.77mph S 16.46mph 0 0.000"
359667 4/14/2024 3:46pm 85.21° F --° F 85.21° F 74.33° F 69.91° F 40.28% 63.83° F 1018.49mb 9.59mph S 21.95mph 0 0.000"
359666 4/14/2024 3:41pm 85.32° F --° F 85.32° F 76.54° F 70.32° F 41.49% 64.58° F 1018.28mb 7.86mph S 21.26mph 0 0.000"
359665 4/14/2024 3:36pm 85.50° F --° F 85.50° F 74.71° F 69.81° F 39.17% 63.47° F 1018.23mb 9.33mph S 15.77mph 0 0.000"
359664 4/14/2024 3:31pm 86.31° F --° F 86.31° F 75.63° F 70.17° F 38.14% 63.59° F 1018.23mb 9.13mph S 19.22mph 0 0.000"
359663 4/14/2024 3:26pm 86.47° F --° F 86.47° F 75.43° F 70.52° F 38.89% 64.15° F 1018.46mb 9.63mph S 22.64mph 0 0.000"
359662 4/14/2024 3:21pm 86.09° F --° F 86.09° F 75.63° F 70.63° F 40.31% 64.61° F 1018.46mb 9.31mph S 19.22mph 0 0.000"
359661 4/14/2024 3:16pm 85.26° F --° F 85.26° F 68.39° F 69.85° F 39.98% 63.71° F 1018.59mb 15.13mph S 30.87mph 0 0.000"
359660 4/14/2024 3:11pm 85.89° F --° F 85.89° F 72.30° F 69.90° F 38.36% 63.35° F 1018.74mb 11.84mph S 21.26mph 0 0.000"
359659 4/14/2024 3:06pm 86.81° F --° F 86.81° F 73.25° F 70.40° F 37.59% 63.70° F 1018.91mb 11.77mph S 20.57mph 0 0.000"
359658 4/14/2024 3:00pm 87.60° F --° F 87.60° F 76.48° F 71.06° F 37.68% 64.44° F 1019.03mb 9.65mph S 20.57mph 0 0.000"
359657 4/14/2024 2:55pm 87.75° F --° F 87.75° F 76.98° F 71.01° F 37.16% 64.26° F 1019.22mb 9.24mph S 19.88mph 0 0.000"
359656 4/14/2024 2:50pm 86.72° F --° F 86.72° F 75.37° F 70.41° F 37.87% 63.78° F 1019.19mb 9.75mph S 17.84mph 0 0.000"
359655 4/14/2024 2:45pm 85.50° F --° F 85.50° F 75.47° F 69.70° F 38.75% 63.23° F 1019.08mb 8.55mph S 15.08mph 0 0.000"
359654 4/14/2024 2:40pm 85.24° F --° F 85.24° F 74.82° F 69.20° F 37.77% 62.45° F 1019.12mb 8.74mph S 19.22mph 0 0.000"
359653 4/14/2024 2:35pm 85.86° F --° F 85.86° F 76.16° F 69.35° F 36.62% 62.31° F 1019.40mb 7.91mph S 16.46mph 0 0.000"
359652 4/14/2024 2:30pm 86.74° F --° F 86.74° F 73.57° F 69.64° F 35.36% 62.30° F 1019.56mb 10.99mph S 21.26mph 0 0.000"
359651 4/14/2024 2:25pm 88.18° F --° F 88.18° F 75.32° F 70.61° F 34.85% 63.22° F 1019.59mb 10.78mph S 22.64mph 0 0.000"
359650 4/14/2024 2:20pm 88.20° F --° F 88.20° F 76.83° F 71.40° F 37.26% 64.71° F 1019.58mb 9.91mph S 19.22mph 0 0.000"
359649 4/14/2024 2:15pm 87.78° F --° F 87.78° F 74.24° F 71.12° F 37.41% 64.43° F 1019.72mb 11.88mph S 19.88mph 0 0.000"
359648 4/14/2024 2:10pm 87.62° F --° F 87.62° F 80.12° F 71.63° F 39.52% 65.51° F 1019.83mb 6.69mph S 12.34mph 0 0.000"
359647 4/14/2024 2:04pm 87.94° F --° F 87.94° F 77.01° F 71.08° F 36.85% 64.24° F 1019.70mb 9.36mph S 20.57mph 0 0.000"
359646 4/14/2024 1:59pm 89.49° F --° F 89.49° F 79.62° F 72.53° F 37.54% 65.99° F 1019.77mb 8.94mph S 19.88mph 0 0.000"
359645 4/14/2024 1:54pm 89.47° F --° F 89.47° F 80.61° F 73.17° F 39.64% 67.19° F 1019.73mb 8.57mph S 22.64mph 0 0.000"
359644 4/14/2024 1:49pm 88.59° F --° F 88.59° F 78.77° F 72.82° F 40.80% 67.07° F 1019.87mb 9.47mph S 20.57mph 0 0.000"
359643 4/14/2024 1:44pm 87.39° F --° F 87.39° F 77.64° F 71.81° F 40.71% 65.97° F 1019.95mb 9.01mph S 21.95mph 0 0.000"
359642 4/14/2024 1:39pm 85.66° F --° F 85.66° F 73.11° F 70.81° F 42.20% 65.25° F 1020.04mb 11.56mph S 19.22mph 0 0.000"
359641 4/14/2024 1:34pm 84.94° F --° F 84.94° F 72.96° F 70.24° F 42.27% 64.65° F 1020.17mb 10.94mph S 17.84mph 0 0.000"
359640 4/14/2024 1:29pm 84.15° F --° F 84.15° F 72.31° F 69.68° F 42.66% 64.16° F 1020.07mb 10.80mph S 21.26mph 0 0.000"
359639 4/14/2024 1:24pm 84.36° F --° F 84.36° F 66.32° F 68.89° F 39.15% 62.46° F 1019.93mb 16.04mph S 28.11mph 0 0.000"
359638 4/14/2024 1:19pm 85.96° F --° F 85.96° F 72.35° F 70.18° F 39.12% 63.84° F 1020.00mb 12.00mph S 21.95mph 0 0.000"
359637 4/14/2024 1:13pm 86.23° F --° F 86.23° F 75.80° F 71.46° F 42.85% 66.09° F 1020.02mb 9.84mph S 19.22mph 0 0.000"
359636 4/14/2024 1:08pm 85.08° F --° F 85.08° F 72.99° F 70.17° F 41.62% 64.43° F 1020.22mb 10.94mph S 22.64mph 0 0.000"
359635 4/14/2024 1:03pm 83.48° F --° F 83.48° F 69.19° F 68.84° F 41.57% 63.00° F 1020.30mb 12.90mph S 25.38mph 0 0.000"
359634 4/14/2024 12:58pm 84.27° F --° F 84.27° F 72.36° F 68.78° F 38.98% 62.29° F 1020.64mb 10.30mph S 19.88mph 0 0.000"
359633 4/14/2024 12:53pm 85.15° F --° F 85.15° F 71.91° F 69.18° F 37.96% 62.48° F 1020.64mb 11.40mph S 17.15mph 0 0.000"
359632 4/14/2024 12:48pm 85.60° F --° F 85.60° F 71.07° F 69.74° F 38.60% 63.23° F 1020.57mb 12.73mph S 23.33mph 0 0.000"
359631 4/14/2024 12:43pm 86.14° F --° F 86.14° F 73.27° F 70.26° F 38.88% 63.86° F 1020.60mb 11.29mph S 20.57mph 0 0.000"
359630 4/14/2024 12:38pm 86.68° F --° F 86.68° F 75.09° F 71.13° F 40.34% 65.14° F 1020.64mb 10.48mph S 18.53mph 0 0.000"
359629 4/14/2024 12:33pm 86.16° F --° F 86.16° F 74.85° F 71.20° F 42.11% 65.64° F 1020.40mb 10.48mph S 17.15mph 0 0.000"
359628 4/14/2024 12:27pm 84.56° F --° F 84.56° F 79.24° F 71.73° F 49.51% 67.85° F 1020.65mb 6.07mph S 11.65mph 0 0.000"
359627 4/14/2024 12:22pm 84.15° F --° F 84.15° F 76.96° F 70.72° F 46.74% 66.19° F 1020.67mb 7.17mph S 15.77mph 0 0.000"
359626 4/14/2024 12:17pm 83.97° F --° F 83.97° F 75.53° F 70.70° F 47.30% 66.29° F 1020.67mb 8.41mph S 17.15mph 0 0.000"
359625 4/14/2024 12:12pm 83.80° F --° F 83.80° F 73.97° F 70.70° F 47.92% 66.43° F 1020.64mb 9.79mph S 16.46mph 0 0.000"
359624 4/14/2024 12:07pm 83.79° F --° F 83.79° F 71.81° F 70.58° F 47.44% 66.20° F 1020.57mb 11.70mph S 21.26mph 0 0.000"
359623 4/14/2024 12:02pm 84.00° F --° F 84.00° F 73.24° F 70.91° F 48.02% 66.66° F 1020.65mb 10.71mph S 16.46mph 0 0.000"
359622 4/14/2024 11:57am 84.61° F --° F 84.61° F 76.26° F 71.07° F 46.54% 66.50° F 1020.91mb 8.30mph S 17.15mph 0 0.000"
359621 4/14/2024 11:52am 84.31° F --° F 84.31° F 76.00° F 71.38° F 48.91% 67.35° F 1021.20mb 8.67mph S 15.08mph 0 0.000"
359620 4/14/2024 11:47am 83.50° F --° F 83.50° F 76.53° F 70.43° F 47.88% 66.14° F 1021.20mb 7.06mph S 15.08mph 0 0.000"
359619 4/14/2024 11:42am 84.47° F --° F 84.47° F 79.30° F 71.52° F 48.93% 67.50° F 1021.28mb 5.79mph S 11.65mph 0 0.000"
359618 4/14/2024 11:36am 85.41° F --° F 85.41° F 80.90° F 72.33° F 48.96% 68.36° F 1021.42mb 5.47mph S 13.03mph 0 0.000"
359617 4/14/2024 11:31am 85.14° F --° F 85.14° F 81.72° F 72.97° F 52.71% 69.79° F 1021.24mb 5.26mph S 10.30mph 0 0.000"
359616 4/14/2024 11:26am 84.00° F --° F 84.00° F 79.14° F 72.24° F 53.97% 69.29° F 1021.29mb 6.41mph S 18.53mph 0 0.000"
359615 4/14/2024 11:21am 83.93° F --° F 83.93° F 78.51° F 71.79° F 52.10% 68.43° F 1021.31mb 6.51mph S 12.34mph 0 0.000"
359614 4/14/2024 11:16am 84.52° F --° F 84.52° F 80.41° F 72.80° F 54.35% 69.93° F 1021.32mb 6.02mph S 14.41mph 0 0.000"
359613 4/14/2024 11:11am 84.67° F --° F 84.67° F 82.16° F 72.80° F 53.85% 69.85° F 1021.47mb 4.48mph S 10.96mph 0 0.000"
359612 4/14/2024 11:06am 84.52° F --° F 84.52° F 79.68° F 72.38° F 52.43% 69.11° F 1021.40mb 6.25mph S 14.41mph 0 0.000"
359611 4/14/2024 11:01am 83.37° F --° F 83.37° F 79.72° F 72.80° F 59.38% 70.90° F 1021.36mb 6.18mph S 12.34mph 0 0.000"
359610 4/14/2024 10:56am 81.75° F --° F 81.75° F 76.16° F 72.00° F 62.89% 70.72° F 1021.43mb 7.86mph S 13.72mph 0 0.000"
359609 4/14/2024 10:50am 80.58° F --° F 80.58° F 76.92° F 71.26° F 64.76% 70.29° F 1021.48mb 5.82mph S 12.34mph 0 0.000"
359608 4/14/2024 10:45am 80.06° F --° F 80.06° F 76.39° F 71.23° F 67.48% 70.75° F 1021.47mb 5.93mph S 11.65mph 0 0.000"
359607 4/14/2024 10:40am 79.36° F --° F 79.36° F 73.57° F 70.76° F 68.56% 70.45° F 1021.47mb 7.70mph S 15.08mph 0 0.000"
359606 4/14/2024 10:35am 78.84° F --° F 78.84° F 73.59° F 70.64° F 70.92% 70.74° F 1021.41mb 7.15mph S 15.77mph 0 0.000"
359605 4/14/2024 10:30am 78.26° F --° F 78.26° F 73.86° F 70.61° F 74.35% 71.27° F 1021.41mb 6.25mph S 15.08mph 0 0.000"
359604 4/14/2024 10:25am 77.97° F --° F 77.97° F 75.35° F 70.74° F 77.32% 71.90° F 1021.42mb 4.51mph S 10.96mph 0 0.000"
359603 4/14/2024 10:20am 78.37° F --° F 78.37° F 73.57° F 70.82° F 75.22% 71.65° F 1021.40mb 6.71mph S 13.72mph 0 0.000"
359602 4/14/2024 10:15am 78.93° F --° F 78.93° F 77.42° F 71.86° F 78.78% 73.26° F 1021.40mb 4.23mph S 10.30mph 0 0.000"
359601 4/14/2024 10:10am 79.29° F --° F 79.29° F 76.48° F 72.60° F 81.77% 74.48° F 1021.35mb 6.02mph S 11.65mph 0 0.000"
359600 4/14/2024 10:05am 79.03° F --° F 79.03° F 76.23° F 72.81° F 85.21% 75.20° F 1021.39mb 6.00mph S 15.77mph 0 0.000"
359599 4/14/2024 10:00am 79.23° F --° F 79.23° F 74.96° F 73.02° F 85.36% 75.44° F 1021.35mb 7.63mph S 13.72mph 0 0.000"
359598 4/14/2024 9:54am 78.24° F --° F 78.24° F 74.41° F 73.61° F 98.55% 77.89° F 1021.38mb 6.44mph S 15.77mph 0 0.000"
359597 4/14/2024 9:49am 76.57° F --° F 76.57° F 71.44° F 72.09° F 100.00% 76.57° F 1021.36mb 4.60mph S 11.65mph 0 0.000"
359596 4/14/2024 9:44am 75.43° F --° F 75.43° F 67.22° F 70.94° F 100.00% 75.43° F 1021.21mb 5.65mph S 10.30mph 0 0.000"
359595 4/14/2024 9:39am 74.97° F --° F 74.97° F 64.53° F 70.47° F 100.00% 74.97° F 1021.18mb 7.06mph WNW 13.03mph 0 0.000"
359594 4/14/2024 9:34am 74.46° F --° F 74.46° F 65.57° F 69.97° F 100.00% 74.46° F 1021.30mb 4.92mph W 13.03mph 0 0.000"
359593 4/14/2024 9:29am 73.96° F --° F 73.96° F 73.96° F 69.46° F 100.00% 73.96° F 1021.29mb 5.77mph WNW 9.61mph 0 0.000"
359592 4/14/2024 9:24am 73.44° F --° F 73.44° F 73.44° F 68.93° F 100.00% 73.44° F 1021.47mb 6.48mph S 16.46mph 0 0.000"
359591 4/14/2024 9:19am 72.95° F --° F 72.95° F 72.95° F 68.44° F 100.00% 72.95° F 1021.43mb 3.75mph S 8.92mph 0 0.000"
359590 4/14/2024 9:14am 72.28° F --° F 72.28° F 72.28° F 67.77° F 100.00% 72.28° F 1021.51mb 4.69mph S 8.92mph 0 0.000"
359589 4/14/2024 9:09am 71.60° F --° F 71.60° F 71.60° F 67.08° F 100.00% 71.60° F 1021.51mb 5.01mph S 10.30mph 0 0.000"
359588 4/14/2024 9:03am 70.92° F --° F 70.92° F 70.92° F 66.39° F 100.00% 70.92° F 1021.52mb 4.23mph S 8.23mph 0 0.000"
359587 4/14/2024 8:58am 70.30° F --° F 70.30° F 70.30° F 65.78° F 100.00% 70.30° F 1021.51mb 4.41mph S 8.92mph 0 0.000"
359586 4/14/2024 8:53am 69.57° F --° F 69.57° F 69.57° F 65.03° F 100.00% 69.57° F 1021.43mb 3.70mph S 6.85mph 0 0.000"
359585 4/14/2024 8:48am 68.79° F --° F 68.79° F 68.79° F 64.26° F 100.00% 68.79° F 1021.54mb 3.45mph S 7.54mph 0 0.000"
359584 4/14/2024 8:43am 68.13° F --° F 68.13° F 68.13° F 63.58° F 100.00% 68.13° F 1021.54mb 3.45mph S 7.54mph 0 0.000"
359583 4/14/2024 8:38am 67.37° F --° F 67.37° F 67.37° F 62.82° F 100.00% 67.37° F 1021.57mb 3.38mph S 7.54mph 0 0.000"
359582 4/14/2024 8:33am 66.49° F --° F 66.49° F 66.49° F 61.94° F 100.00% 66.49° F 1021.57mb 2.34mph S 4.80mph 0 0.000"
359581 4/14/2024 8:28am 65.68° F --° F 65.68° F 65.68° F 61.12° F 100.00% 65.68° F 1021.60mb 2.48mph S 6.18mph 0 0.000"
359580 4/14/2024 8:23am 64.87° F --° F 64.87° F 64.87° F 60.30° F 100.00% 64.87° F 1021.45mb 2.25mph N 4.80mph 0 0.000"
359579 4/14/2024 8:18am 64.17° F --° F 64.17° F 64.17° F 59.60° F 100.00% 64.17° F 1021.46mb 3.84mph S 6.18mph 0 0.000"
359578 4/14/2024 8:13am 63.37° F --° F 63.37° F 63.37° F 58.80° F 100.00% 63.37° F 1021.37mb 2.34mph N 4.80mph 0 0.000"
359577 4/14/2024 8:08am 62.67° F --° F 62.67° F 62.67° F 58.09° F 100.00% 62.67° F 1021.40mb 0.00mph -- 0.69mph 0 0.000"
359576 4/14/2024 8:03am 62.11° F --° F 62.11° F 62.11° F 57.53° F 100.00% 62.11° F 1021.53mb 0.00mph -- 0.00mph 0 0.000"
359575 4/14/2024 7:58am 61.63° F --° F 61.63° F 61.63° F 57.04° F 100.00% 61.63° F 1021.50mb 0.00mph -- 0.00mph 0 0.000"
359574 4/14/2024 7:53am 61.20° F --° F 61.20° F 61.20° F 56.61° F 100.00% 61.20° F 1021.30mb 0.00mph -- 0.00mph 0 0.000"
359573 4/14/2024 7:48am 60.94° F --° F 60.94° F 60.94° F 56.35° F 100.00% 60.94° F 1021.28mb 0.00mph -- 0.00mph 0 0.000"
359572 4/14/2024 7:43am 60.71° F --° F 60.71° F 60.71° F 56.12° F 100.00% 60.71° F 1021.35mb 0.00mph -- 0.00mph 0 0.000"
359571 4/14/2024 7:38am 60.42° F --° F 60.42° F 60.42° F 55.83° F 100.00% 60.42° F 1021.29mb 0.00mph -- 0.00mph 0 0.000"
359570 4/14/2024 7:32am 60.24° F --° F 60.24° F 60.24° F 55.64° F 100.00% 60.24° F 1021.12mb 0.00mph -- 0.00mph 0 0.000"
359569 4/14/2024 7:27am 60.06° F --° F 60.06° F 60.06° F 55.46° F 100.00% 60.06° F 1021.11mb 0.00mph -- 0.00mph 0 0.000"
359568 4/14/2024 7:22am 59.95° F --° F 59.95° F 59.95° F 55.35° F 100.00% 59.95° F 1021.21mb 0.00mph -- 0.00mph 0 0.000"
359567 4/14/2024 7:17am 59.85° F --° F 59.85° F 59.85° F 55.25° F 100.00% 59.85° F 1021.08mb 0.00mph -- 0.00mph 0 0.000"
359566 4/14/2024 7:12am 59.77° F --° F 59.77° F 59.77° F 55.17° F 100.00% 59.77° F 1020.91mb 0.00mph -- 0.00mph 0 0.000"
359565 4/14/2024 7:07am 59.72° F --° F 59.72° F 59.72° F 55.12° F 100.00% 59.72° F 1020.86mb 0.00mph -- 0.00mph 0 0.000"
359564 4/14/2024 7:02am 59.72° F --° F 59.72° F 59.72° F 55.12° F 100.00% 59.72° F 1020.86mb 0.00mph -- 0.00mph 0 0.000"
359563 4/14/2024 6:57am 59.74° F --° F 59.74° F 59.74° F 55.14° F 100.00% 59.74° F 1020.80mb 0.00mph -- 0.00mph 0 0.000"
359562 4/14/2024 6:52am 59.72° F --° F 59.72° F 59.72° F 55.12° F 100.00% 59.72° F 1020.81mb 0.00mph -- 0.00mph 0 0.000"
359561 4/14/2024 6:47am 59.77° F --° F 59.77° F 59.77° F 55.17° F 100.00% 59.77° F 1020.86mb 0.00mph -- 0.00mph 0 0.000"
359560 4/14/2024 6:42am 59.85° F --° F 59.85° F 59.85° F 55.25° F 100.00% 59.85° F 1020.87mb 0.00mph -- 0.00mph 0 0.000"
359559 4/14/2024 6:37am 59.94° F --° F 59.94° F 59.94° F 55.34° F 100.00% 59.94° F 1020.73mb 0.00mph -- 0.00mph 0 0.000"
359558 4/14/2024 6:32am 60.04° F --° F 60.04° F 60.04° F 55.45° F 100.00% 60.04° F 1020.83mb 0.00mph -- 0.00mph 0 0.000"
359557 4/14/2024 6:27am 60.12° F --° F 60.12° F 60.12° F 55.52° F 100.00% 60.12° F 1020.79mb 0.00mph -- 0.00mph 0 0.000"
359556 4/14/2024 6:22am 60.19° F --° F 60.19° F 60.19° F 55.59° F 100.00% 60.19° F 1020.75mb 0.00mph -- 0.00mph 0 0.000"
359555 4/14/2024 6:17am 60.31° F --° F 60.31° F 60.31° F 55.72° F 100.00% 60.31° F 1020.76mb 0.00mph -- 0.00mph 0 0.000"
359554 4/14/2024 6:12am 60.42° F --° F 60.42° F 60.42° F 55.83° F 100.00% 60.42° F 1020.61mb 0.00mph -- 0.00mph 0 0.000"
359553 4/14/2024 6:07am 60.55° F --° F 60.55° F 60.55° F 55.95° F 100.00% 60.55° F 1020.75mb 0.00mph -- 0.00mph 0 0.000"
359552 4/14/2024 6:02am 60.62° F --° F 60.62° F 60.62° F 56.03° F 100.00% 60.62° F 1020.67mb 0.00mph -- 0.00mph 0 0.000"
359551 4/14/2024 5:57am 60.71° F --° F 60.71° F 60.71° F 56.12° F 100.00% 60.71° F 1020.68mb 0.00mph -- 0.00mph 0 0.000"
359550 4/14/2024 5:52am 60.82° F --° F 60.82° F 60.82° F 56.23° F 100.00% 60.82° F 1020.62mb 0.00mph -- 0.00mph 0 0.000"
359549 4/14/2024 5:46am 60.89° F --° F 60.89° F 60.89° F 56.30° F 100.00% 60.89° F 1020.63mb 0.00mph -- 0.00mph 0 0.000"
359548 4/14/2024 5:41am 61.00° F --° F 61.00° F 61.00° F 56.41° F 100.00% 61.00° F 1020.44mb 0.00mph -- 0.00mph 0 0.000"
359547 4/14/2024 5:36am 61.09° F --° F 61.09° F 61.09° F 56.50° F 100.00% 61.09° F 1020.38mb 0.00mph -- 0.00mph 0 0.000"
359546 4/14/2024 5:31am 61.21° F --° F 61.21° F 61.21° F 56.62° F 100.00% 61.21° F 1020.29mb 0.00mph -- 0.00mph 0 0.000"
359545 4/14/2024 5:26am 61.30° F --° F 61.30° F 61.30° F 56.71° F 100.00% 61.30° F 1020.29mb 0.00mph -- 0.00mph 0 0.000"
359544 4/14/2024 5:21am 61.45° F --° F 61.45° F 61.45° F 56.86° F 100.00% 61.45° F 1020.27mb 0.00mph -- 0.00mph 0 0.000"
359543 4/14/2024 5:16am 61.56° F --° F 61.56° F 61.56° F 56.97° F 100.00% 61.56° F 1020.13mb 0.00mph -- 0.00mph 0 0.000"
359542 4/14/2024 5:11am 61.68° F --° F 61.68° F 61.68° F 57.10° F 100.00% 61.68° F 1020.06mb 0.00mph -- 0.00mph 0 0.000"
359541 4/14/2024 5:06am 61.75° F --° F 61.75° F 61.75° F 57.17° F 100.00% 61.75° F 1019.90mb 0.00mph -- 0.00mph 0 0.000"
359540 4/14/2024 5:01am 61.84° F --° F 61.84° F 61.84° F 57.26° F 100.00% 61.84° F 1020.02mb 0.00mph -- 0.00mph 0 0.000"
359539 4/14/2024 4:56am 61.97° F --° F 61.97° F 61.97° F 57.39° F 100.00% 61.97° F 1020.03mb 0.00mph -- 0.00mph 0 0.000"
359538 4/14/2024 4:51am 62.13° F --° F 62.13° F 62.13° F 57.55° F 100.00% 62.13° F 1020.10mb 0.00mph -- 0.00mph 0 0.000"
359537 4/14/2024 4:46am 62.29° F --° F 62.29° F 62.29° F 57.71° F 100.00% 62.29° F 1020.00mb 0.00mph -- 0.00mph 0 0.000"
359536 4/14/2024 4:41am 62.46° F --° F 62.46° F 62.46° F 57.87° F 100.00% 62.46° F 1019.96mb 0.00mph -- 0.00mph 0 0.000"
359535 4/14/2024 4:36am 62.60° F --° F 62.60° F 62.60° F 58.02° F 100.00% 62.60° F 1020.04mb 0.00mph -- 0.00mph 0 0.000"
359534 4/14/2024 4:31am 62.76° F --° F 62.76° F 62.76° F 58.18° F 100.00% 62.76° F 1020.12mb 0.00mph -- 0.00mph 0 0.000"
359533 4/14/2024 4:26am 62.89° F --° F 62.89° F 62.89° F 58.31° F 100.00% 62.89° F 1020.08mb 0.00mph -- 0.00mph 0 0.000"
359532 4/14/2024 4:21am 63.01° F --° F 63.01° F 63.01° F 58.44° F 100.00% 63.01° F 1020.01mb 0.00mph -- 0.00mph 0 0.000"
359531 4/14/2024 4:16am 63.18° F --° F 63.18° F 63.18° F 58.60° F 100.00% 63.18° F 1020.15mb 0.00mph -- 0.00mph 0 0.000"
359530 4/14/2024 4:11am 63.32° F --° F 63.32° F 63.32° F 58.74° F 100.00% 63.32° F 1020.04mb 0.00mph -- 0.00mph 0 0.000"
359529 4/14/2024 4:05am 63.50° F --° F 63.50° F 63.50° F 58.93° F 100.00% 63.50° F 1020.09mb 0.00mph -- 0.00mph 0 0.000"
359528 4/14/2024 4:00am 63.64° F --° F 63.64° F 63.64° F 59.07° F 100.00% 63.64° F 1020.07mb 0.00mph -- 0.00mph 0 0.000"
359527 4/14/2024 3:55am 63.82° F --° F 63.82° F 63.82° F 59.25° F 100.00% 63.82° F 1019.96mb 0.00mph -- 0.00mph 0 0.000"
359526 4/14/2024 3:50am 63.99° F --° F 63.99° F 63.99° F 59.42° F 100.00% 63.99° F 1020.00mb 0.00mph -- 0.69mph 0 0.000"
359525 4/14/2024 3:45am 64.15° F --° F 64.15° F 64.15° F 59.58° F 100.00% 64.15° F 1020.03mb 0.00mph -- 0.00mph 0 0.000"
359524 4/14/2024 3:40am 64.27° F --° F 64.27° F 64.27° F 59.71° F 100.00% 64.27° F 1019.99mb 0.00mph -- 0.00mph 0 0.000"
359523 4/14/2024 3:35am 64.40° F --° F 64.40° F 64.40° F 59.83° F 100.00% 64.40° F 1019.97mb 0.00mph -- 0.00mph 0 0.000"
359522 4/14/2024 3:30am 64.58° F --° F 64.58° F 64.58° F 60.01° F 100.00% 64.58° F 1019.95mb 0.00mph -- 0.00mph 0 0.000"
359521 4/14/2024 3:25am 64.72° F --° F 64.72° F 64.72° F 60.16° F 100.00% 64.72° F 1020.13mb 0.00mph -- 0.00mph 0 0.000"
359520 4/14/2024 3:20am 64.81° F --° F 64.81° F 64.81° F 60.25° F 100.00% 64.81° F 1020.10mb 0.00mph -- 0.00mph 0 0.000"
359519 4/14/2024 3:15am 64.87° F --° F 64.87° F 64.87° F 60.30° F 100.00% 64.87° F 1020.09mb 0.00mph -- 0.00mph 0 0.000"
359518 4/14/2024 3:10am 64.96° F --° F 64.96° F 64.96° F 60.39° F 100.00% 64.96° F 1020.08mb 0.00mph -- 0.00mph 0 0.000"
359517 4/14/2024 3:05am 65.03° F --° F 65.03° F 65.03° F 60.47° F 100.00% 65.03° F 1020.16mb 0.00mph -- 0.00mph 0 0.000"
359516 4/14/2024 3:00am 65.03° F --° F 65.03° F 65.03° F 60.47° F 100.00% 65.03° F 1020.09mb 0.00mph -- 0.00mph 0 0.000"
359515 4/14/2024 2:55am 65.05° F --° F 65.05° F 65.05° F 60.48° F 100.00% 65.05° F 1020.12mb 0.30mph NNW 2.74mph 0 0.000"
359514 4/14/2024 2:50am 65.08° F --° F 65.08° F 65.08° F 60.52° F 100.00% 65.08° F 1020.29mb 0.00mph -- 0.00mph 0 0.000"
359513 4/14/2024 2:45am 65.14° F --° F 65.14° F 65.14° F 60.58° F 100.00% 65.14° F 1020.40mb 0.39mph NNW 2.74mph 0 0.000"
359512 4/14/2024 2:40am 65.23° F --° F 65.23° F 65.23° F 60.67° F 100.00% 65.23° F 1020.39mb 0.16mph NNW 2.07mph 0 0.000"
359511 4/14/2024 2:35am 65.26° F --° F 65.26° F 65.26° F 60.70° F 100.00% 65.26° F 1020.46mb 0.00mph -- 0.69mph 0 0.000"
359510 4/14/2024 2:30am 65.30° F --° F 65.30° F 65.30° F 60.74° F 100.00% 65.30° F 1020.54mb 0.16mph NNW 2.07mph 0 0.000"
359509 4/14/2024 2:25am 65.37° F --° F 65.37° F 65.37° F 60.81° F 100.00% 65.37° F 1020.54mb 0.57mph NNW 2.07mph 0 0.000"
359508 4/14/2024 2:19am 65.44° F --° F 65.44° F 65.44° F 60.88° F 100.00% 65.44° F 1020.51mb 0.92mph NNW 3.43mph 0 0.000"
359507 4/14/2024 2:14am 65.52° F --° F 65.52° F 65.52° F 60.96° F 100.00% 65.52° F 1020.46mb 0.07mph NNW 1.38mph 0 0.000"
359506 4/14/2024 2:09am 65.59° F --° F 65.59° F 65.59° F 61.03° F 100.00% 65.59° F 1020.59mb 0.07mph NNW 1.38mph 0 0.000"
359505 4/14/2024 2:04am 65.70° F --° F 65.70° F 65.70° F 61.14° F 100.00% 65.70° F 1020.58mb 0.00mph -- 0.00mph 0 0.000"
359504 4/14/2024 1:59am 65.79° F --° F 65.79° F 65.79° F 61.23° F 100.00% 65.79° F 1020.66mb 0.02mph NNW 0.69mph 0 0.000"
359503 4/14/2024 1:54am 65.88° F --° F 65.88° F 65.88° F 61.32° F 100.00% 65.88° F 1020.80mb 0.14mph NNW 2.07mph 0 0.000"
359502 4/14/2024 1:49am 65.95° F --° F 65.95° F 65.95° F 61.39° F 100.00% 65.95° F 1020.73mb 1.54mph NW 4.11mph 0 0.000"
359501 4/14/2024 1:44am 66.04° F --° F 66.04° F 66.04° F 61.48° F 100.00% 66.04° F 1020.84mb 1.52mph NW 4.80mph 0 0.000"
359500 4/14/2024 1:39am 66.06° F --° F 66.06° F 66.06° F 61.50° F 100.00% 66.06° F 1020.83mb 0.21mph NNW 3.43mph 0 0.000"
359499 4/14/2024 1:34am 66.15° F --° F 66.15° F 66.15° F 61.59° F 100.00% 66.15° F 1020.94mb 0.00mph -- 0.00mph 0 0.000"
359498 4/14/2024 1:29am 66.24° F --° F 66.24° F 66.24° F 61.68° F 100.00% 66.24° F 1021.01mb 0.00mph -- 0.00mph 0 0.000"
359497 4/14/2024 1:24am 66.31° F --° F 66.31° F 66.31° F 61.75° F 100.00% 66.31° F 1021.11mb 0.64mph NNW 2.74mph 0 0.000"
359496 4/14/2024 1:19am 66.38° F --° F 66.38° F 66.38° F 61.83° F 100.00% 66.38° F 1021.26mb 1.26mph NW 3.43mph 0 0.000"
359495 4/14/2024 1:14am 66.49° F --° F 66.49° F 66.49° F 61.94° F 100.00% 66.49° F 1021.36mb 0.57mph NW 4.11mph 0 0.000"
359494 4/14/2024 1:09am 66.58° F --° F 66.58° F 66.58° F 62.03° F 100.00% 66.58° F 1021.17mb 1.79mph NW 4.11mph 0 0.000"
359493 4/14/2024 1:04am 66.65° F --° F 66.65° F 66.65° F 62.10° F 100.00% 66.65° F 1021.35mb 1.06mph NW 3.43mph 0 0.000"
359492 4/14/2024 12:59am 66.70° F --° F 66.70° F 66.70° F 62.15° F 100.00% 66.70° F 1021.34mb 0.97mph NW 4.80mph 0 0.000"
359491 4/14/2024 12:54am 66.81° F --° F 66.81° F 66.81° F 62.26° F 100.00% 66.81° F 1021.32mb 0.74mph NW 2.74mph 0 0.000"
359490 4/14/2024 12:48am 66.88° F --° F 66.88° F 66.88° F 62.33° F 100.00% 66.88° F 1021.39mb 1.29mph WNW 4.11mph 0 0.000"
359489 4/14/2024 12:43am 67.01° F --° F 67.01° F 67.01° F 62.46° F 100.00% 67.01° F 1021.45mb 0.02mph NNW 0.69mph 0 0.000"
359488 4/14/2024 12:38am 67.15° F --° F 67.15° F 67.15° F 62.61° F 100.00% 67.15° F 1021.37mb 0.02mph NNW 0.69mph 0 0.000"
359487 4/14/2024 12:33am 67.28° F --° F 67.28° F 67.28° F 62.73° F 100.00% 67.28° F 1021.48mb 0.60mph NNW 4.11mph 0 0.000"
359486 4/14/2024 12:28am 67.46° F --° F 67.46° F 67.46° F 62.91° F 100.00% 67.46° F 1021.55mb 0.11mph NNW 2.74mph 0 0.000"
359485 4/14/2024 12:23am 67.66° F --° F 67.66° F 67.66° F 63.11° F 100.00% 67.66° F 1021.55mb 0.00mph -- 0.00mph 0 0.000"
359484 4/14/2024 12:18am 67.86° F --° F 67.86° F 67.86° F 63.31° F 100.00% 67.86° F 1021.51mb 0.39mph NNW 3.43mph 0 0.000"
359483 4/14/2024 12:13am 68.13° F --° F 68.13° F 68.13° F 63.58° F 100.00% 68.13° F 1021.54mb 0.00mph -- 0.00mph 0 0.000"
359482 4/14/2024 12:08am 68.40° F --° F 68.40° F 68.40° F 63.86° F 100.00% 68.40° F 1021.68mb 0.00mph -- 0.00mph 0 0.000"
359481 4/14/2024 12:03am 68.72° F --° F 68.72° F 68.72° F 64.18° F 100.00% 68.72° F 1021.66mb 0.55mph NNW 3.43mph 0 0.000"